<?xml version="1.0" encoding="UTF-8"?>
<gpx version="1.1" creator="https://www.youtrack.es" xsi:schemaLocation="http://www.topografix.com/GPX/1/1 http://www.topografix.com/GPX/1/1/gpx.xsd http://www.garmin.com/xmlschemas/GpxExtensions/v3 http://www.garmin.com/xmlschemas/GpxExtensionsv3.xsd http://www.garmin.com/xmlschemas/TrackPointExtension/v1 http://www.garmin.com/xmlschemas/TrackPointExtensionv1.xsd" xmlns:gpxtpx="http://www.garmin.com/xmlschemas/TrackPointExtension/v1" xmlns:gpxx="http://www.garmin.com/xmlschemas/GpxExtensions/v3" xmlns:xsi="http://www.w3.org/2001/XMLSchema-instance">
  <metadata>
    <link href="https://www.youtrack.es">
      <text>YouTrack.es</text>
    </link>
    <time>2026-05-10T15:30:59Z</time>
  </metadata>
  <trk>
    <src>https://www.youtrack.es</src>
    <link href="https://www.youtrack.es/ruta/17039-tibi">
      <text>YouTrack.es</text>
    </link>
    <trkseg>
      <trkpt lat="41.42171" lon="2.11848">
        <time>2020-11-02 16:40:04</time>
      </trkpt>
      <trkpt lat="41.42175" lon="2.11853">
        <time>2020-11-02 16:40:05</time>
      </trkpt>
      <trkpt lat="41.42182" lon="2.11855">
        <time>2020-11-02 16:40:09</time>
      </trkpt>
      <trkpt lat="41.42183" lon="2.11853">
        <time>2020-11-02 16:40:11</time>
      </trkpt>
      <trkpt lat="41.42187" lon="2.11845">
        <time>2020-11-02 16:40:16</time>
      </trkpt>
      <trkpt lat="41.42197" lon="2.11837">
        <time>2020-11-02 16:40:24</time>
      </trkpt>
      <trkpt lat="41.42198" lon="2.11836">
        <time>2020-11-02 16:40:25</time>
      </trkpt>
      <trkpt lat="41.42202" lon="2.11833">
        <time>2020-11-02 16:40:28</time>
      </trkpt>
      <trkpt lat="41.42205" lon="2.11834">
        <time>2020-11-02 16:40:30</time>
      </trkpt>
      <trkpt lat="41.42207" lon="2.11835">
        <time>2020-11-02 16:40:31</time>
      </trkpt>
      <trkpt lat="41.42213" lon="2.11835">
        <time>2020-11-02 16:40:38</time>
      </trkpt>
      <trkpt lat="41.42214" lon="2.11836">
        <time>2020-11-02 16:40:39</time>
      </trkpt>
      <trkpt lat="41.42217" lon="2.11832">
        <time>2020-11-02 16:40:43</time>
      </trkpt>
      <trkpt lat="41.42219" lon="2.11832">
        <time>2020-11-02 16:40:44</time>
      </trkpt>
      <trkpt lat="41.42228" lon="2.11832">
        <time>2020-11-02 16:40:50</time>
      </trkpt>
      <trkpt lat="41.42231" lon="2.11833">
        <time>2020-11-02 16:40:52</time>
      </trkpt>
      <trkpt lat="41.42234" lon="2.11838">
        <time>2020-11-02 16:40:56</time>
      </trkpt>
      <trkpt lat="41.42238" lon="2.1184">
        <time>2020-11-02 16:40:59</time>
      </trkpt>
      <trkpt lat="41.42241" lon="2.11843">
        <time>2020-11-02 16:41:03</time>
      </trkpt>
      <trkpt lat="41.42245" lon="2.11848">
        <time>2020-11-02 16:41:07</time>
      </trkpt>
      <trkpt lat="41.42248" lon="2.11849">
        <time>2020-11-02 16:41:09</time>
      </trkpt>
      <trkpt lat="41.42254" lon="2.11854">
        <time>2020-11-02 16:41:15</time>
      </trkpt>
      <trkpt lat="41.42263" lon="2.11863">
        <time>2020-11-02 16:41:24</time>
      </trkpt>
      <trkpt lat="41.42263" lon="2.11866">
        <time>2020-11-02 16:41:26</time>
      </trkpt>
      <trkpt lat="41.42266" lon="2.1187">
        <time>2020-11-02 16:41:29</time>
      </trkpt>
      <trkpt lat="41.42275" lon="2.11877">
        <time>2020-11-02 16:41:38</time>
      </trkpt>
      <trkpt lat="41.42286" lon="2.11882">
        <time>2020-11-02 16:41:47</time>
      </trkpt>
      <trkpt lat="41.42298" lon="2.11891">
        <time>2020-11-02 16:41:56</time>
      </trkpt>
      <trkpt lat="41.4231" lon="2.11899">
        <time>2020-11-02 16:42:05</time>
      </trkpt>
      <trkpt lat="41.42321" lon="2.11904">
        <time>2020-11-02 16:42:14</time>
      </trkpt>
      <trkpt lat="41.42322" lon="2.11905">
        <time>2020-11-02 16:42:15</time>
      </trkpt>
      <trkpt lat="41.42327" lon="2.11908">
        <time>2020-11-02 16:42:18</time>
      </trkpt>
      <trkpt lat="41.4233" lon="2.11908">
        <time>2020-11-02 16:42:20</time>
      </trkpt>
      <trkpt lat="41.42336" lon="2.1191">
        <time>2020-11-02 16:42:24</time>
      </trkpt>
      <trkpt lat="41.42338" lon="2.11912">
        <time>2020-11-02 16:42:25</time>
      </trkpt>
      <trkpt lat="41.4235" lon="2.11918">
        <time>2020-11-02 16:42:30</time>
      </trkpt>
      <trkpt lat="41.42356" lon="2.1192">
        <time>2020-11-02 16:42:32</time>
      </trkpt>
      <trkpt lat="41.42361" lon="2.1192">
        <time>2020-11-02 16:42:34</time>
      </trkpt>
      <trkpt lat="41.42365" lon="2.1192">
        <time>2020-11-02 16:42:36</time>
      </trkpt>
      <trkpt lat="41.42371" lon="2.11922">
        <time>2020-11-02 16:42:38</time>
      </trkpt>
      <trkpt lat="41.42378" lon="2.11925">
        <time>2020-11-02 16:42:41</time>
      </trkpt>
      <trkpt lat="41.42383" lon="2.11928">
        <time>2020-11-02 16:42:43</time>
      </trkpt>
      <trkpt lat="41.42388" lon="2.11931">
        <time>2020-11-02 16:42:45</time>
      </trkpt>
      <trkpt lat="41.42391" lon="2.11932">
        <time>2020-11-02 16:42:46</time>
      </trkpt>
      <trkpt lat="41.42396" lon="2.11935">
        <time>2020-11-02 16:42:48</time>
      </trkpt>
      <trkpt lat="41.42405" lon="2.11937">
        <time>2020-11-02 16:42:51</time>
      </trkpt>
      <trkpt lat="41.42407" lon="2.11937">
        <time>2020-11-02 16:42:52</time>
      </trkpt>
      <trkpt lat="41.4241" lon="2.11936">
        <time>2020-11-02 16:42:53</time>
      </trkpt>
      <trkpt lat="41.42424" lon="2.11939">
        <time>2020-11-02 16:42:58</time>
      </trkpt>
      <trkpt lat="41.42429" lon="2.11939">
        <time>2020-11-02 16:43:00</time>
      </trkpt>
      <trkpt lat="41.42443" lon="2.11939">
        <time>2020-11-02 16:43:05</time>
      </trkpt>
      <trkpt lat="41.42449" lon="2.11938">
        <time>2020-11-02 16:43:07</time>
      </trkpt>
      <trkpt lat="41.4246" lon="2.11939">
        <time>2020-11-02 16:43:11</time>
      </trkpt>
      <trkpt lat="41.42471" lon="2.11941">
        <time>2020-11-02 16:43:15</time>
      </trkpt>
      <trkpt lat="41.42475" lon="2.11941">
        <time>2020-11-02 16:43:17</time>
      </trkpt>
      <trkpt lat="41.42493" lon="2.11946">
        <time>2020-11-02 16:43:24</time>
      </trkpt>
      <trkpt lat="41.42496" lon="2.11947">
        <time>2020-11-02 16:43:25</time>
      </trkpt>
      <trkpt lat="41.42506" lon="2.1195">
        <time>2020-11-02 16:43:29</time>
      </trkpt>
      <trkpt lat="41.42511" lon="2.11952">
        <time>2020-11-02 16:43:31</time>
      </trkpt>
      <trkpt lat="41.4252" lon="2.11955">
        <time>2020-11-02 16:43:35</time>
      </trkpt>
      <trkpt lat="41.42522" lon="2.11956">
        <time>2020-11-02 16:43:36</time>
      </trkpt>
      <trkpt lat="41.42543" lon="2.11959">
        <time>2020-11-02 16:43:43</time>
      </trkpt>
      <trkpt lat="41.42546" lon="2.11959">
        <time>2020-11-02 16:43:44</time>
      </trkpt>
      <trkpt lat="41.42561" lon="2.11972">
        <time>2020-11-02 16:43:51</time>
      </trkpt>
      <trkpt lat="41.42563" lon="2.11975">
        <time>2020-11-02 16:43:52</time>
      </trkpt>
      <trkpt lat="41.42566" lon="2.1198">
        <time>2020-11-02 16:43:55</time>
      </trkpt>
      <trkpt lat="41.42567" lon="2.11983">
        <time>2020-11-02 16:43:56</time>
      </trkpt>
      <trkpt lat="41.42567" lon="2.11989">
        <time>2020-11-02 16:43:58</time>
      </trkpt>
      <trkpt lat="41.42567" lon="2.12001">
        <time>2020-11-02 16:44:02</time>
      </trkpt>
      <trkpt lat="41.42569" lon="2.12015">
        <time>2020-11-02 16:44:06</time>
      </trkpt>
      <trkpt lat="41.42571" lon="2.1203">
        <time>2020-11-02 16:44:10</time>
      </trkpt>
      <trkpt lat="41.42572" lon="2.12034">
        <time>2020-11-02 16:44:11</time>
      </trkpt>
      <trkpt lat="41.42574" lon="2.12043">
        <time>2020-11-02 16:44:14</time>
      </trkpt>
      <trkpt lat="41.42576" lon="2.12053">
        <time>2020-11-02 16:44:17</time>
      </trkpt>
      <trkpt lat="41.42578" lon="2.1206">
        <time>2020-11-02 16:44:19</time>
      </trkpt>
      <trkpt lat="41.4258" lon="2.1208">
        <time>2020-11-02 16:44:25</time>
      </trkpt>
      <trkpt lat="41.4258" lon="2.1209">
        <time>2020-11-02 16:44:28</time>
      </trkpt>
      <trkpt lat="41.42582" lon="2.12098">
        <time>2020-11-02 16:44:31</time>
      </trkpt>
      <trkpt lat="41.42577" lon="2.12118">
        <time>2020-11-02 16:44:38</time>
      </trkpt>
      <trkpt lat="41.42572" lon="2.12128">
        <time>2020-11-02 16:44:42</time>
      </trkpt>
      <trkpt lat="41.4257" lon="2.1213">
        <time>2020-11-02 16:44:43</time>
      </trkpt>
      <trkpt lat="41.42564" lon="2.12133">
        <time>2020-11-02 16:44:45</time>
      </trkpt>
      <trkpt lat="41.42553" lon="2.12134">
        <time>2020-11-02 16:44:49</time>
      </trkpt>
      <trkpt lat="41.42539" lon="2.12136">
        <time>2020-11-02 16:44:54</time>
      </trkpt>
      <trkpt lat="41.42534" lon="2.12135">
        <time>2020-11-02 16:44:56</time>
      </trkpt>
      <trkpt lat="41.42518" lon="2.12129">
        <time>2020-11-02 16:45:03</time>
      </trkpt>
      <trkpt lat="41.42504" lon="2.1212">
        <time>2020-11-02 16:45:09</time>
      </trkpt>
      <trkpt lat="41.42502" lon="2.12119">
        <time>2020-11-02 16:45:10</time>
      </trkpt>
      <trkpt lat="41.42487" lon="2.1211">
        <time>2020-11-02 16:45:17</time>
      </trkpt>
      <trkpt lat="41.42474" lon="2.121">
        <time>2020-11-02 16:45:23</time>
      </trkpt>
      <trkpt lat="41.42469" lon="2.12097">
        <time>2020-11-02 16:45:25</time>
      </trkpt>
      <trkpt lat="41.42453" lon="2.12084">
        <time>2020-11-02 16:45:32</time>
      </trkpt>
      <trkpt lat="41.42451" lon="2.12082">
        <time>2020-11-02 16:45:33</time>
      </trkpt>
      <trkpt lat="41.42444" lon="2.12078">
        <time>2020-11-02 16:45:36</time>
      </trkpt>
      <trkpt lat="41.42439" lon="2.12076">
        <time>2020-11-02 16:45:38</time>
      </trkpt>
      <trkpt lat="41.42434" lon="2.12072">
        <time>2020-11-02 16:45:40</time>
      </trkpt>
      <trkpt lat="41.42421" lon="2.12064">
        <time>2020-11-02 16:45:45</time>
      </trkpt>
      <trkpt lat="41.42412" lon="2.1206">
        <time>2020-11-02 16:45:49</time>
      </trkpt>
      <trkpt lat="41.42403" lon="2.12055">
        <time>2020-11-02 16:45:53</time>
      </trkpt>
      <trkpt lat="41.42397" lon="2.12052">
        <time>2020-11-02 16:45:55</time>
      </trkpt>
      <trkpt lat="41.42386" lon="2.12048">
        <time>2020-11-02 16:45:59</time>
      </trkpt>
      <trkpt lat="41.42377" lon="2.12046">
        <time>2020-11-02 16:46:02</time>
      </trkpt>
      <trkpt lat="41.42368" lon="2.12045">
        <time>2020-11-02 16:46:05</time>
      </trkpt>
      <trkpt lat="41.42349" lon="2.12046">
        <time>2020-11-02 16:46:11</time>
      </trkpt>
      <trkpt lat="41.42346" lon="2.12046">
        <time>2020-11-02 16:46:12</time>
      </trkpt>
      <trkpt lat="41.42328" lon="2.12046">
        <time>2020-11-02 16:46:18</time>
      </trkpt>
      <trkpt lat="41.42326" lon="2.12046">
        <time>2020-11-02 16:46:19</time>
      </trkpt>
      <trkpt lat="41.42309" lon="2.12048">
        <time>2020-11-02 16:46:25</time>
      </trkpt>
      <trkpt lat="41.42304" lon="2.12048">
        <time>2020-11-02 16:46:27</time>
      </trkpt>
      <trkpt lat="41.42294" lon="2.12049">
        <time>2020-11-02 16:46:31</time>
      </trkpt>
      <trkpt lat="41.42283" lon="2.12045">
        <time>2020-11-02 16:46:36</time>
      </trkpt>
      <trkpt lat="41.42281" lon="2.12045">
        <time>2020-11-02 16:46:37</time>
      </trkpt>
      <trkpt lat="41.42266" lon="2.12041">
        <time>2020-11-02 16:46:43</time>
      </trkpt>
      <trkpt lat="41.42257" lon="2.12044">
        <time>2020-11-02 16:46:46</time>
      </trkpt>
      <trkpt lat="41.42255" lon="2.12051">
        <time>2020-11-02 16:46:48</time>
      </trkpt>
      <trkpt lat="41.42257" lon="2.1206">
        <time>2020-11-02 16:46:50</time>
      </trkpt>
      <trkpt lat="41.42259" lon="2.12063">
        <time>2020-11-02 16:46:51</time>
      </trkpt>
      <trkpt lat="41.42261" lon="2.12066">
        <time>2020-11-02 16:46:52</time>
      </trkpt>
      <trkpt lat="41.4227" lon="2.1207">
        <time>2020-11-02 16:46:55</time>
      </trkpt>
      <trkpt lat="41.42273" lon="2.12073">
        <time>2020-11-02 16:46:57</time>
      </trkpt>
      <trkpt lat="41.42277" lon="2.12084">
        <time>2020-11-02 16:47:00</time>
      </trkpt>
      <trkpt lat="41.42281" lon="2.12086">
        <time>2020-11-02 16:47:01</time>
      </trkpt>
      <trkpt lat="41.42285" lon="2.12086">
        <time>2020-11-02 16:47:02</time>
      </trkpt>
      <trkpt lat="41.42303" lon="2.12081">
        <time>2020-11-02 16:47:08</time>
      </trkpt>
      <trkpt lat="41.4231" lon="2.1208">
        <time>2020-11-02 16:47:11</time>
      </trkpt>
      <trkpt lat="41.42324" lon="2.12079">
        <time>2020-11-02 16:47:16</time>
      </trkpt>
      <trkpt lat="41.42341" lon="2.12083">
        <time>2020-11-02 16:47:23</time>
      </trkpt>
      <trkpt lat="41.42345" lon="2.12084">
        <time>2020-11-02 16:47:24</time>
      </trkpt>
      <trkpt lat="41.42363" lon="2.12091">
        <time>2020-11-02 16:47:31</time>
      </trkpt>
      <trkpt lat="41.4237" lon="2.12096">
        <time>2020-11-02 16:47:34</time>
      </trkpt>
      <trkpt lat="41.42375" lon="2.12098">
        <time>2020-11-02 16:47:36</time>
      </trkpt>
      <trkpt lat="41.42383" lon="2.12102">
        <time>2020-11-02 16:47:39</time>
      </trkpt>
      <trkpt lat="41.42395" lon="2.1211">
        <time>2020-11-02 16:47:44</time>
      </trkpt>
      <trkpt lat="41.42411" lon="2.12121">
        <time>2020-11-02 16:47:51</time>
      </trkpt>
      <trkpt lat="41.42415" lon="2.12127">
        <time>2020-11-02 16:47:53</time>
      </trkpt>
      <trkpt lat="41.42417" lon="2.1213">
        <time>2020-11-02 16:47:54</time>
      </trkpt>
      <trkpt lat="41.42431" lon="2.12146">
        <time>2020-11-02 16:48:01</time>
      </trkpt>
      <trkpt lat="41.42434" lon="2.12152">
        <time>2020-11-02 16:48:03</time>
      </trkpt>
      <trkpt lat="41.42435" lon="2.12156">
        <time>2020-11-02 16:48:04</time>
      </trkpt>
      <trkpt lat="41.42445" lon="2.12174">
        <time>2020-11-02 16:48:10</time>
      </trkpt>
      <trkpt lat="41.42449" lon="2.12181">
        <time>2020-11-02 16:48:12</time>
      </trkpt>
      <trkpt lat="41.42458" lon="2.12197">
        <time>2020-11-02 16:48:17</time>
      </trkpt>
      <trkpt lat="41.42461" lon="2.12203">
        <time>2020-11-02 16:48:19</time>
      </trkpt>
      <trkpt lat="41.42468" lon="2.12215">
        <time>2020-11-02 16:48:23</time>
      </trkpt>
      <trkpt lat="41.4247" lon="2.12218">
        <time>2020-11-02 16:48:24</time>
      </trkpt>
      <trkpt lat="41.42481" lon="2.12231">
        <time>2020-11-02 16:48:30</time>
      </trkpt>
      <trkpt lat="41.42487" lon="2.12239">
        <time>2020-11-02 16:48:33</time>
      </trkpt>
      <trkpt lat="41.42492" lon="2.12243">
        <time>2020-11-02 16:48:35</time>
      </trkpt>
      <trkpt lat="41.42499" lon="2.12246">
        <time>2020-11-02 16:48:38</time>
      </trkpt>
      <trkpt lat="41.42503" lon="2.12248">
        <time>2020-11-02 16:48:40</time>
      </trkpt>
      <trkpt lat="41.42511" lon="2.12254">
        <time>2020-11-02 16:48:44</time>
      </trkpt>
      <trkpt lat="41.42515" lon="2.12258">
        <time>2020-11-02 16:48:46</time>
      </trkpt>
      <trkpt lat="41.42525" lon="2.12263">
        <time>2020-11-02 16:48:50</time>
      </trkpt>
      <trkpt lat="41.42529" lon="2.12264">
        <time>2020-11-02 16:48:52</time>
      </trkpt>
      <trkpt lat="41.42537" lon="2.12268">
        <time>2020-11-02 16:48:55</time>
      </trkpt>
      <trkpt lat="41.4255" lon="2.12275">
        <time>2020-11-02 16:49:00</time>
      </trkpt>
      <trkpt lat="41.42555" lon="2.12279">
        <time>2020-11-02 16:49:02</time>
      </trkpt>
      <trkpt lat="41.42565" lon="2.12285">
        <time>2020-11-02 16:49:06</time>
      </trkpt>
      <trkpt lat="41.4257" lon="2.1229">
        <time>2020-11-02 16:49:08</time>
      </trkpt>
      <trkpt lat="41.42578" lon="2.12294">
        <time>2020-11-02 16:49:11</time>
      </trkpt>
      <trkpt lat="41.42585" lon="2.12297">
        <time>2020-11-02 16:49:14</time>
      </trkpt>
      <trkpt lat="41.42593" lon="2.123">
        <time>2020-11-02 16:49:17</time>
      </trkpt>
      <trkpt lat="41.426" lon="2.12304">
        <time>2020-11-02 16:49:20</time>
      </trkpt>
      <trkpt lat="41.42613" lon="2.12311">
        <time>2020-11-02 16:49:25</time>
      </trkpt>
      <trkpt lat="41.42619" lon="2.12314">
        <time>2020-11-02 16:49:27</time>
      </trkpt>
      <trkpt lat="41.42628" lon="2.12319">
        <time>2020-11-02 16:49:31</time>
      </trkpt>
      <trkpt lat="41.4263" lon="2.1232">
        <time>2020-11-02 16:49:32</time>
      </trkpt>
      <trkpt lat="41.42642" lon="2.12323">
        <time>2020-11-02 16:49:37</time>
      </trkpt>
      <trkpt lat="41.42648" lon="2.12326">
        <time>2020-11-02 16:49:39</time>
      </trkpt>
      <trkpt lat="41.42662" lon="2.1233">
        <time>2020-11-02 16:49:44</time>
      </trkpt>
      <trkpt lat="41.42664" lon="2.12331">
        <time>2020-11-02 16:49:45</time>
      </trkpt>
      <trkpt lat="41.42675" lon="2.12334">
        <time>2020-11-02 16:49:49</time>
      </trkpt>
      <trkpt lat="41.4268" lon="2.12334">
        <time>2020-11-02 16:49:51</time>
      </trkpt>
      <trkpt lat="41.42691" lon="2.12332">
        <time>2020-11-02 16:49:55</time>
      </trkpt>
      <trkpt lat="41.42694" lon="2.12331">
        <time>2020-11-02 16:49:56</time>
      </trkpt>
      <trkpt lat="41.42698" lon="2.12332">
        <time>2020-11-02 16:49:58</time>
      </trkpt>
      <trkpt lat="41.42699" lon="2.12333">
        <time>2020-11-02 16:49:59</time>
      </trkpt>
      <trkpt lat="41.42699" lon="2.12334">
        <time>2020-11-02 16:50:00</time>
      </trkpt>
      <trkpt lat="41.42703" lon="2.12339">
        <time>2020-11-02 16:50:03</time>
      </trkpt>
      <trkpt lat="41.42703" lon="2.12345">
        <time>2020-11-02 16:50:08</time>
      </trkpt>
      <trkpt lat="41.42701" lon="2.1235">
        <time>2020-11-02 16:50:12</time>
      </trkpt>
      <trkpt lat="41.42697" lon="2.12349">
        <time>2020-11-02 16:50:14</time>
      </trkpt>
      <trkpt lat="41.42689" lon="2.12344">
        <time>2020-11-02 16:50:21</time>
      </trkpt>
      <trkpt lat="41.42686" lon="2.12358">
        <time>2020-11-02 16:50:25</time>
      </trkpt>
      <trkpt lat="41.42676" lon="2.12381">
        <time>2020-11-02 16:50:31</time>
      </trkpt>
      <trkpt lat="41.42675" lon="2.12384">
        <time>2020-11-02 16:50:32</time>
      </trkpt>
      <trkpt lat="41.42665" lon="2.1239">
        <time>2020-11-02 16:50:36</time>
      </trkpt>
      <trkpt lat="41.42654" lon="2.12388">
        <time>2020-11-02 16:50:40</time>
      </trkpt>
      <trkpt lat="41.42648" lon="2.12382">
        <time>2020-11-02 16:50:43</time>
      </trkpt>
      <trkpt lat="41.42638" lon="2.12372">
        <time>2020-11-02 16:50:47</time>
      </trkpt>
      <trkpt lat="41.42631" lon="2.12361">
        <time>2020-11-02 16:50:51</time>
      </trkpt>
      <trkpt lat="41.42629" lon="2.12358">
        <time>2020-11-02 16:50:52</time>
      </trkpt>
      <trkpt lat="41.42622" lon="2.12349">
        <time>2020-11-02 16:50:55</time>
      </trkpt>
      <trkpt lat="41.4262" lon="2.12344">
        <time>2020-11-02 16:50:57</time>
      </trkpt>
      <trkpt lat="41.42617" lon="2.1234">
        <time>2020-11-02 16:50:59</time>
      </trkpt>
      <trkpt lat="41.4261" lon="2.12337">
        <time>2020-11-02 16:51:02</time>
      </trkpt>
      <trkpt lat="41.42608" lon="2.12337">
        <time>2020-11-02 16:51:03</time>
      </trkpt>
      <trkpt lat="41.42591" lon="2.12337">
        <time>2020-11-02 16:51:08</time>
      </trkpt>
      <trkpt lat="41.42581" lon="2.12337">
        <time>2020-11-02 16:51:12</time>
      </trkpt>
      <trkpt lat="41.42578" lon="2.12337">
        <time>2020-11-02 16:51:13</time>
      </trkpt>
      <trkpt lat="41.42573" lon="2.12337">
        <time>2020-11-02 16:51:15</time>
      </trkpt>
      <trkpt lat="41.4257" lon="2.12337">
        <time>2020-11-02 16:51:16</time>
      </trkpt>
      <trkpt lat="41.42562" lon="2.12336">
        <time>2020-11-02 16:51:19</time>
      </trkpt>
      <trkpt lat="41.42551" lon="2.12332">
        <time>2020-11-02 16:51:23</time>
      </trkpt>
      <trkpt lat="41.42545" lon="2.1233">
        <time>2020-11-02 16:51:25</time>
      </trkpt>
      <trkpt lat="41.42536" lon="2.12326">
        <time>2020-11-02 16:51:28</time>
      </trkpt>
      <trkpt lat="41.42528" lon="2.12323">
        <time>2020-11-02 16:51:31</time>
      </trkpt>
      <trkpt lat="41.42523" lon="2.12319">
        <time>2020-11-02 16:51:33</time>
      </trkpt>
      <trkpt lat="41.42516" lon="2.12317">
        <time>2020-11-02 16:51:36</time>
      </trkpt>
      <trkpt lat="41.42513" lon="2.12318">
        <time>2020-11-02 16:51:37</time>
      </trkpt>
      <trkpt lat="41.42503" lon="2.12318">
        <time>2020-11-02 16:51:40</time>
      </trkpt>
      <trkpt lat="41.42497" lon="2.1232">
        <time>2020-11-02 16:51:42</time>
      </trkpt>
      <trkpt lat="41.42492" lon="2.12322">
        <time>2020-11-02 16:51:44</time>
      </trkpt>
      <trkpt lat="41.42485" lon="2.12326">
        <time>2020-11-02 16:51:47</time>
      </trkpt>
      <trkpt lat="41.42481" lon="2.12329">
        <time>2020-11-02 16:51:49</time>
      </trkpt>
      <trkpt lat="41.42469" lon="2.12331">
        <time>2020-11-02 16:51:53</time>
      </trkpt>
      <trkpt lat="41.42459" lon="2.12336">
        <time>2020-11-02 16:51:56</time>
      </trkpt>
      <trkpt lat="41.42451" lon="2.12339">
        <time>2020-11-02 16:51:59</time>
      </trkpt>
      <trkpt lat="41.4245" lon="2.1234">
        <time>2020-11-02 16:52:00</time>
      </trkpt>
      <trkpt lat="41.42447" lon="2.12342">
        <time>2020-11-02 16:52:02</time>
      </trkpt>
      <trkpt lat="41.42444" lon="2.12343">
        <time>2020-11-02 16:52:03</time>
      </trkpt>
      <trkpt lat="41.42439" lon="2.12345">
        <time>2020-11-02 16:52:05</time>
      </trkpt>
      <trkpt lat="41.4243" lon="2.12345">
        <time>2020-11-02 16:52:08</time>
      </trkpt>
      <trkpt lat="41.42427" lon="2.12346">
        <time>2020-11-02 16:52:09</time>
      </trkpt>
      <trkpt lat="41.42418" lon="2.12348">
        <time>2020-11-02 16:52:12</time>
      </trkpt>
      <trkpt lat="41.42412" lon="2.12349">
        <time>2020-11-02 16:52:14</time>
      </trkpt>
      <trkpt lat="41.42407" lon="2.12352">
        <time>2020-11-02 16:52:16</time>
      </trkpt>
      <trkpt lat="41.42396" lon="2.12356">
        <time>2020-11-02 16:52:20</time>
      </trkpt>
      <trkpt lat="41.42393" lon="2.12355">
        <time>2020-11-02 16:52:21</time>
      </trkpt>
      <trkpt lat="41.42381" lon="2.12349">
        <time>2020-11-02 16:52:27</time>
      </trkpt>
      <trkpt lat="41.42374" lon="2.12334">
        <time>2020-11-02 16:52:32</time>
      </trkpt>
      <trkpt lat="41.42373" lon="2.12319">
        <time>2020-11-02 16:52:36</time>
      </trkpt>
      <trkpt lat="41.42372" lon="2.12317">
        <time>2020-11-02 16:52:37</time>
      </trkpt>
      <trkpt lat="41.42371" lon="2.12309">
        <time>2020-11-02 16:52:40</time>
      </trkpt>
      <trkpt lat="41.42369" lon="2.12303">
        <time>2020-11-02 16:52:42</time>
      </trkpt>
      <trkpt lat="41.42367" lon="2.12294">
        <time>2020-11-02 16:52:45</time>
      </trkpt>
      <trkpt lat="41.42365" lon="2.1229">
        <time>2020-11-02 16:52:47</time>
      </trkpt>
      <trkpt lat="41.42362" lon="2.12287">
        <time>2020-11-02 16:52:50</time>
      </trkpt>
      <trkpt lat="41.4236" lon="2.12282">
        <time>2020-11-02 16:52:52</time>
      </trkpt>
      <trkpt lat="41.42358" lon="2.12279">
        <time>2020-11-02 16:52:53</time>
      </trkpt>
      <trkpt lat="41.4235" lon="2.1227">
        <time>2020-11-02 16:52:57</time>
      </trkpt>
      <trkpt lat="41.42348" lon="2.12268">
        <time>2020-11-02 16:52:58</time>
      </trkpt>
      <trkpt lat="41.42342" lon="2.12261">
        <time>2020-11-02 16:53:01</time>
      </trkpt>
      <trkpt lat="41.42341" lon="2.12259">
        <time>2020-11-02 16:53:02</time>
      </trkpt>
      <trkpt lat="41.42337" lon="2.12252">
        <time>2020-11-02 16:53:05</time>
      </trkpt>
      <trkpt lat="41.42332" lon="2.12249">
        <time>2020-11-02 16:53:07</time>
      </trkpt>
      <trkpt lat="41.42329" lon="2.12247">
        <time>2020-11-02 16:53:08</time>
      </trkpt>
      <trkpt lat="41.42319" lon="2.12241">
        <time>2020-11-02 16:53:12</time>
      </trkpt>
      <trkpt lat="41.4231" lon="2.12241">
        <time>2020-11-02 16:53:17</time>
      </trkpt>
      <trkpt lat="41.42299" lon="2.1224">
        <time>2020-11-02 16:53:22</time>
      </trkpt>
      <trkpt lat="41.42296" lon="2.12239">
        <time>2020-11-02 16:53:23</time>
      </trkpt>
      <trkpt lat="41.42288" lon="2.12233">
        <time>2020-11-02 16:53:27</time>
      </trkpt>
      <trkpt lat="41.4228" lon="2.1223">
        <time>2020-11-02 16:53:31</time>
      </trkpt>
      <trkpt lat="41.42276" lon="2.12231">
        <time>2020-11-02 16:53:36</time>
      </trkpt>
      <trkpt lat="41.42272" lon="2.12229">
        <time>2020-11-02 16:53:40</time>
      </trkpt>
      <trkpt lat="41.42254" lon="2.1222">
        <time>2020-11-02 16:54:07</time>
      </trkpt>
      <trkpt lat="41.42251" lon="2.12222">
        <time>2020-11-02 16:54:08</time>
      </trkpt>
      <trkpt lat="41.42248" lon="2.12226">
        <time>2020-11-02 16:54:10</time>
      </trkpt>
      <trkpt lat="41.42247" lon="2.12229">
        <time>2020-11-02 16:54:11</time>
      </trkpt>
      <trkpt lat="41.42244" lon="2.1224">
        <time>2020-11-02 16:54:14</time>
      </trkpt>
      <trkpt lat="41.42244" lon="2.12243">
        <time>2020-11-02 16:54:15</time>
      </trkpt>
      <trkpt lat="41.42245" lon="2.12255">
        <time>2020-11-02 16:54:18</time>
      </trkpt>
      <trkpt lat="41.42244" lon="2.12262">
        <time>2020-11-02 16:54:20</time>
      </trkpt>
      <trkpt lat="41.42241" lon="2.12267">
        <time>2020-11-02 16:54:22</time>
      </trkpt>
      <trkpt lat="41.42238" lon="2.12274">
        <time>2020-11-02 16:54:24</time>
      </trkpt>
      <trkpt lat="41.42237" lon="2.12277">
        <time>2020-11-02 16:54:25</time>
      </trkpt>
      <trkpt lat="41.42236" lon="2.12284">
        <time>2020-11-02 16:54:27</time>
      </trkpt>
      <trkpt lat="41.42236" lon="2.12287">
        <time>2020-11-02 16:54:29</time>
      </trkpt>
      <trkpt lat="41.42235" lon="2.12289">
        <time>2020-11-02 16:54:30</time>
      </trkpt>
      <trkpt lat="41.42235" lon="2.12292">
        <time>2020-11-02 16:54:31</time>
      </trkpt>
      <trkpt lat="41.42235" lon="2.12295">
        <time>2020-11-02 16:54:32</time>
      </trkpt>
      <trkpt lat="41.42236" lon="2.123">
        <time>2020-11-02 16:54:34</time>
      </trkpt>
      <trkpt lat="41.42236" lon="2.12304">
        <time>2020-11-02 16:54:35</time>
      </trkpt>
      <trkpt lat="41.42236" lon="2.12307">
        <time>2020-11-02 16:54:36</time>
      </trkpt>
      <trkpt lat="41.42236" lon="2.12313">
        <time>2020-11-02 16:54:39</time>
      </trkpt>
      <trkpt lat="41.42236" lon="2.12315">
        <time>2020-11-02 16:54:40</time>
      </trkpt>
      <trkpt lat="41.42235" lon="2.12317">
        <time>2020-11-02 16:54:41</time>
      </trkpt>
      <trkpt lat="41.42234" lon="2.1232">
        <time>2020-11-02 16:54:42</time>
      </trkpt>
      <trkpt lat="41.42226" lon="2.12331">
        <time>2020-11-02 16:54:46</time>
      </trkpt>
      <trkpt lat="41.42224" lon="2.12334">
        <time>2020-11-02 16:54:47</time>
      </trkpt>
      <trkpt lat="41.42216" lon="2.12347">
        <time>2020-11-02 16:54:51</time>
      </trkpt>
      <trkpt lat="41.42204" lon="2.12359">
        <time>2020-11-02 16:54:56</time>
      </trkpt>
      <trkpt lat="41.42202" lon="2.1236">
        <time>2020-11-02 16:54:57</time>
      </trkpt>
      <trkpt lat="41.42193" lon="2.12362">
        <time>2020-11-02 16:55:00</time>
      </trkpt>
      <trkpt lat="41.42187" lon="2.12365">
        <time>2020-11-02 16:55:02</time>
      </trkpt>
      <trkpt lat="41.42185" lon="2.12365">
        <time>2020-11-02 16:55:03</time>
      </trkpt>
      <trkpt lat="41.42177" lon="2.12368">
        <time>2020-11-02 16:55:06</time>
      </trkpt>
      <trkpt lat="41.42173" lon="2.12371">
        <time>2020-11-02 16:55:08</time>
      </trkpt>
      <trkpt lat="41.42171" lon="2.12373">
        <time>2020-11-02 16:55:09</time>
      </trkpt>
      <trkpt lat="41.42165" lon="2.12383">
        <time>2020-11-02 16:55:12</time>
      </trkpt>
      <trkpt lat="41.42164" lon="2.12386">
        <time>2020-11-02 16:55:13</time>
      </trkpt>
      <trkpt lat="41.42162" lon="2.12403">
        <time>2020-11-02 16:55:17</time>
      </trkpt>
      <trkpt lat="41.42162" lon="2.12407">
        <time>2020-11-02 16:55:18</time>
      </trkpt>
      <trkpt lat="41.42163" lon="2.12433">
        <time>2020-11-02 16:55:24</time>
      </trkpt>
      <trkpt lat="41.42162" lon="2.12437">
        <time>2020-11-02 16:55:25</time>
      </trkpt>
      <trkpt lat="41.42161" lon="2.12452">
        <time>2020-11-02 16:55:28</time>
      </trkpt>
      <trkpt lat="41.42157" lon="2.12465">
        <time>2020-11-02 16:55:31</time>
      </trkpt>
      <trkpt lat="41.42146" lon="2.12475">
        <time>2020-11-02 16:55:35</time>
      </trkpt>
      <trkpt lat="41.42138" lon="2.12481">
        <time>2020-11-02 16:55:38</time>
      </trkpt>
      <trkpt lat="41.4212" lon="2.12489">
        <time>2020-11-02 16:55:44</time>
      </trkpt>
      <trkpt lat="41.42117" lon="2.12489">
        <time>2020-11-02 16:55:45</time>
      </trkpt>
      <trkpt lat="41.42102" lon="2.1249">
        <time>2020-11-02 16:55:50</time>
      </trkpt>
      <trkpt lat="41.421" lon="2.1249">
        <time>2020-11-02 16:55:51</time>
      </trkpt>
      <trkpt lat="41.42095" lon="2.12488">
        <time>2020-11-02 16:55:56</time>
      </trkpt>
      <trkpt lat="41.42093" lon="2.12488">
        <time>2020-11-02 16:55:57</time>
      </trkpt>
      <trkpt lat="41.42091" lon="2.12489">
        <time>2020-11-02 16:55:58</time>
      </trkpt>
      <trkpt lat="41.42087" lon="2.12492">
        <time>2020-11-02 16:56:00</time>
      </trkpt>
      <trkpt lat="41.42083" lon="2.12493">
        <time>2020-11-02 16:56:03</time>
      </trkpt>
      <trkpt lat="41.42082" lon="2.12493">
        <time>2020-11-02 16:56:04</time>
      </trkpt>
      <trkpt lat="41.42079" lon="2.12491">
        <time>2020-11-02 16:56:06</time>
      </trkpt>
      <trkpt lat="41.42075" lon="2.12488">
        <time>2020-11-02 16:56:09</time>
      </trkpt>
      <trkpt lat="41.42073" lon="2.12488">
        <time>2020-11-02 16:56:10</time>
      </trkpt>
      <trkpt lat="41.4207" lon="2.12489">
        <time>2020-11-02 16:56:12</time>
      </trkpt>
      <trkpt lat="41.42069" lon="2.1249">
        <time>2020-11-02 16:56:13</time>
      </trkpt>
      <trkpt lat="41.42067" lon="2.12494">
        <time>2020-11-02 16:56:15</time>
      </trkpt>
      <trkpt lat="41.42065" lon="2.12495">
        <time>2020-11-02 16:56:16</time>
      </trkpt>
      <trkpt lat="41.42062" lon="2.12498">
        <time>2020-11-02 16:56:19</time>
      </trkpt>
      <trkpt lat="41.42062" lon="2.12501">
        <time>2020-11-02 16:56:21</time>
      </trkpt>
      <trkpt lat="41.42061" lon="2.12503">
        <time>2020-11-02 16:56:22</time>
      </trkpt>
      <trkpt lat="41.42057" lon="2.12506">
        <time>2020-11-02 16:56:24</time>
      </trkpt>
      <trkpt lat="41.42055" lon="2.12505">
        <time>2020-11-02 16:56:25</time>
      </trkpt>
      <trkpt lat="41.42048" lon="2.12496">
        <time>2020-11-02 16:56:29</time>
      </trkpt>
      <trkpt lat="41.42046" lon="2.12493">
        <time>2020-11-02 16:56:30</time>
      </trkpt>
      <trkpt lat="41.42033" lon="2.12476">
        <time>2020-11-02 16:56:36</time>
      </trkpt>
      <trkpt lat="41.42018" lon="2.12454">
        <time>2020-11-02 16:56:42</time>
      </trkpt>
      <trkpt lat="41.42015" lon="2.12453">
        <time>2020-11-02 16:56:43</time>
      </trkpt>
      <trkpt lat="41.42002" lon="2.12451">
        <time>2020-11-02 16:56:47</time>
      </trkpt>
      <trkpt lat="41.41989" lon="2.12452">
        <time>2020-11-02 16:56:52</time>
      </trkpt>
      <trkpt lat="41.41987" lon="2.12451">
        <time>2020-11-02 16:56:53</time>
      </trkpt>
      <trkpt lat="41.41971" lon="2.12447">
        <time>2020-11-02 16:56:58</time>
      </trkpt>
      <trkpt lat="41.41955" lon="2.12442">
        <time>2020-11-02 16:57:03</time>
      </trkpt>
      <trkpt lat="41.41946" lon="2.1244">
        <time>2020-11-02 16:57:06</time>
      </trkpt>
      <trkpt lat="41.4194" lon="2.12439">
        <time>2020-11-02 16:57:08</time>
      </trkpt>
      <trkpt lat="41.41935" lon="2.12439">
        <time>2020-11-02 16:57:10</time>
      </trkpt>
      <trkpt lat="41.41932" lon="2.12443">
        <time>2020-11-02 16:57:12</time>
      </trkpt>
      <trkpt lat="41.41929" lon="2.1245">
        <time>2020-11-02 16:57:14</time>
      </trkpt>
      <trkpt lat="41.41922" lon="2.12463">
        <time>2020-11-02 16:57:18</time>
      </trkpt>
      <trkpt lat="41.41921" lon="2.12467">
        <time>2020-11-02 16:57:19</time>
      </trkpt>
      <trkpt lat="41.41915" lon="2.12487">
        <time>2020-11-02 16:57:23</time>
      </trkpt>
      <trkpt lat="41.41908" lon="2.12504">
        <time>2020-11-02 16:57:27</time>
      </trkpt>
      <trkpt lat="41.41903" lon="2.12517">
        <time>2020-11-02 16:57:31</time>
      </trkpt>
      <trkpt lat="41.41897" lon="2.12527">
        <time>2020-11-02 16:57:34</time>
      </trkpt>
      <trkpt lat="41.41889" lon="2.12536">
        <time>2020-11-02 16:57:37</time>
      </trkpt>
      <trkpt lat="41.41885" lon="2.12537">
        <time>2020-11-02 16:57:39</time>
      </trkpt>
      <trkpt lat="41.41878" lon="2.12536">
        <time>2020-11-02 16:57:43</time>
      </trkpt>
      <trkpt lat="41.41878" lon="2.12537">
        <time>2020-11-02 16:57:46</time>
      </trkpt>
      <trkpt lat="41.41855" lon="2.1253">
        <time>2020-11-02 16:58:11</time>
      </trkpt>
      <trkpt lat="41.41852" lon="2.1253">
        <time>2020-11-02 16:58:12</time>
      </trkpt>
      <trkpt lat="41.41841" lon="2.12534">
        <time>2020-11-02 16:58:16</time>
      </trkpt>
      <trkpt lat="41.41838" lon="2.12534">
        <time>2020-11-02 16:58:17</time>
      </trkpt>
      <trkpt lat="41.41828" lon="2.12539">
        <time>2020-11-02 16:58:20</time>
      </trkpt>
      <trkpt lat="41.41823" lon="2.12545">
        <time>2020-11-02 16:58:22</time>
      </trkpt>
      <trkpt lat="41.41822" lon="2.1255">
        <time>2020-11-02 16:58:23</time>
      </trkpt>
      <trkpt lat="41.41819" lon="2.12572">
        <time>2020-11-02 16:58:27</time>
      </trkpt>
      <trkpt lat="41.41817" lon="2.12585">
        <time>2020-11-02 16:58:30</time>
      </trkpt>
      <trkpt lat="41.41818" lon="2.12595">
        <time>2020-11-02 16:58:32</time>
      </trkpt>
      <trkpt lat="41.41814" lon="2.12603">
        <time>2020-11-02 16:58:34</time>
      </trkpt>
      <trkpt lat="41.41809" lon="2.12609">
        <time>2020-11-02 16:58:36</time>
      </trkpt>
      <trkpt lat="41.41807" lon="2.12611">
        <time>2020-11-02 16:58:37</time>
      </trkpt>
      <trkpt lat="41.41798" lon="2.12618">
        <time>2020-11-02 16:58:41</time>
      </trkpt>
      <trkpt lat="41.41795" lon="2.12619">
        <time>2020-11-02 16:58:42</time>
      </trkpt>
      <trkpt lat="41.41785" lon="2.12622">
        <time>2020-11-02 16:58:45</time>
      </trkpt>
      <trkpt lat="41.41781" lon="2.12624">
        <time>2020-11-02 16:58:46</time>
      </trkpt>
      <trkpt lat="41.41773" lon="2.1263">
        <time>2020-11-02 16:58:49</time>
      </trkpt>
      <trkpt lat="41.41768" lon="2.12633">
        <time>2020-11-02 16:58:51</time>
      </trkpt>
      <trkpt lat="41.41763" lon="2.12633">
        <time>2020-11-02 16:58:53</time>
      </trkpt>
      <trkpt lat="41.4176" lon="2.12631">
        <time>2020-11-02 16:58:55</time>
      </trkpt>
      <trkpt lat="41.41755" lon="2.12629">
        <time>2020-11-02 16:58:57</time>
      </trkpt>
      <trkpt lat="41.4175" lon="2.12618">
        <time>2020-11-02 16:59:01</time>
      </trkpt>
      <trkpt lat="41.41742" lon="2.12602">
        <time>2020-11-02 16:59:06</time>
      </trkpt>
      <trkpt lat="41.4174" lon="2.12599">
        <time>2020-11-02 16:59:07</time>
      </trkpt>
      <trkpt lat="41.41738" lon="2.12593">
        <time>2020-11-02 16:59:09</time>
      </trkpt>
      <trkpt lat="41.41733" lon="2.12583">
        <time>2020-11-02 16:59:12</time>
      </trkpt>
      <trkpt lat="41.41731" lon="2.1258">
        <time>2020-11-02 16:59:13</time>
      </trkpt>
      <trkpt lat="41.41724" lon="2.12573">
        <time>2020-11-02 16:59:16</time>
      </trkpt>
      <trkpt lat="41.41718" lon="2.12571">
        <time>2020-11-02 16:59:18</time>
      </trkpt>
      <trkpt lat="41.41714" lon="2.1257">
        <time>2020-11-02 16:59:19</time>
      </trkpt>
      <trkpt lat="41.41706" lon="2.1257">
        <time>2020-11-02 16:59:22</time>
      </trkpt>
      <trkpt lat="41.41702" lon="2.1257">
        <time>2020-11-02 16:59:23</time>
      </trkpt>
      <trkpt lat="41.41698" lon="2.1257">
        <time>2020-11-02 16:59:24</time>
      </trkpt>
      <trkpt lat="41.41692" lon="2.1257">
        <time>2020-11-02 16:59:26</time>
      </trkpt>
      <trkpt lat="41.41683" lon="2.12567">
        <time>2020-11-02 16:59:29</time>
      </trkpt>
      <trkpt lat="41.41676" lon="2.12565">
        <time>2020-11-02 16:59:31</time>
      </trkpt>
      <trkpt lat="41.41665" lon="2.12559">
        <time>2020-11-02 16:59:35</time>
      </trkpt>
      <trkpt lat="41.41654" lon="2.12554">
        <time>2020-11-02 16:59:39</time>
      </trkpt>
      <trkpt lat="41.41645" lon="2.12547">
        <time>2020-11-02 16:59:42</time>
      </trkpt>
      <trkpt lat="41.41639" lon="2.12536">
        <time>2020-11-02 16:59:46</time>
      </trkpt>
      <trkpt lat="41.41636" lon="2.1253">
        <time>2020-11-02 16:59:48</time>
      </trkpt>
      <trkpt lat="41.41632" lon="2.12524">
        <time>2020-11-02 16:59:50</time>
      </trkpt>
      <trkpt lat="41.41628" lon="2.12513">
        <time>2020-11-02 16:59:53</time>
      </trkpt>
      <trkpt lat="41.41626" lon="2.12509">
        <time>2020-11-02 16:59:54</time>
      </trkpt>
      <trkpt lat="41.41624" lon="2.12503">
        <time>2020-11-02 16:59:56</time>
      </trkpt>
      <trkpt lat="41.41623" lon="2.12492">
        <time>2020-11-02 16:59:59</time>
      </trkpt>
      <trkpt lat="41.41626" lon="2.12481">
        <time>2020-11-02 17:00:02</time>
      </trkpt>
      <trkpt lat="41.41626" lon="2.12474">
        <time>2020-11-02 17:00:04</time>
      </trkpt>
      <trkpt lat="41.41626" lon="2.12471">
        <time>2020-11-02 17:00:05</time>
      </trkpt>
      <trkpt lat="41.41621" lon="2.12461">
        <time>2020-11-02 17:00:08</time>
      </trkpt>
      <trkpt lat="41.41619" lon="2.12458">
        <time>2020-11-02 17:00:09</time>
      </trkpt>
      <trkpt lat="41.4161" lon="2.12453">
        <time>2020-11-02 17:00:12</time>
      </trkpt>
      <trkpt lat="41.41605" lon="2.12451">
        <time>2020-11-02 17:00:14</time>
      </trkpt>
      <trkpt lat="41.41603" lon="2.12451">
        <time>2020-11-02 17:00:15</time>
      </trkpt>
      <trkpt lat="41.41596" lon="2.12458">
        <time>2020-11-02 17:00:18</time>
      </trkpt>
      <trkpt lat="41.41594" lon="2.12466">
        <time>2020-11-02 17:00:20</time>
      </trkpt>
      <trkpt lat="41.41594" lon="2.12479">
        <time>2020-11-02 17:00:23</time>
      </trkpt>
      <trkpt lat="41.41597" lon="2.1249">
        <time>2020-11-02 17:00:26</time>
      </trkpt>
      <trkpt lat="41.41602" lon="2.12505">
        <time>2020-11-02 17:00:30</time>
      </trkpt>
      <trkpt lat="41.41606" lon="2.12514">
        <time>2020-11-02 17:00:33</time>
      </trkpt>
      <trkpt lat="41.41609" lon="2.12525">
        <time>2020-11-02 17:00:36</time>
      </trkpt>
      <trkpt lat="41.41609" lon="2.12534">
        <time>2020-11-02 17:00:38</time>
      </trkpt>
      <trkpt lat="41.4161" lon="2.12546">
        <time>2020-11-02 17:00:41</time>
      </trkpt>
      <trkpt lat="41.4161" lon="2.1255">
        <time>2020-11-02 17:00:42</time>
      </trkpt>
      <trkpt lat="41.41613" lon="2.12561">
        <time>2020-11-02 17:00:45</time>
      </trkpt>
      <trkpt lat="41.41616" lon="2.12572">
        <time>2020-11-02 17:00:48</time>
      </trkpt>
      <trkpt lat="41.41623" lon="2.12586">
        <time>2020-11-02 17:00:52</time>
      </trkpt>
      <trkpt lat="41.41626" lon="2.12593">
        <time>2020-11-02 17:00:54</time>
      </trkpt>
      <trkpt lat="41.41628" lon="2.12597">
        <time>2020-11-02 17:00:55</time>
      </trkpt>
      <trkpt lat="41.4164" lon="2.12611">
        <time>2020-11-02 17:01:00</time>
      </trkpt>
      <trkpt lat="41.41648" lon="2.12615">
        <time>2020-11-02 17:01:03</time>
      </trkpt>
      <trkpt lat="41.41651" lon="2.12617">
        <time>2020-11-02 17:01:04</time>
      </trkpt>
      <trkpt lat="41.41665" lon="2.12625">
        <time>2020-11-02 17:01:09</time>
      </trkpt>
      <trkpt lat="41.41667" lon="2.12627">
        <time>2020-11-02 17:01:10</time>
      </trkpt>
      <trkpt lat="41.4167" lon="2.12628">
        <time>2020-11-02 17:01:11</time>
      </trkpt>
      <trkpt lat="41.41672" lon="2.1263">
        <time>2020-11-02 17:01:12</time>
      </trkpt>
      <trkpt lat="41.41677" lon="2.12634">
        <time>2020-11-02 17:01:14</time>
      </trkpt>
      <trkpt lat="41.41687" lon="2.12642">
        <time>2020-11-02 17:01:18</time>
      </trkpt>
      <trkpt lat="41.41689" lon="2.12648">
        <time>2020-11-02 17:01:20</time>
      </trkpt>
      <trkpt lat="41.4169" lon="2.12655">
        <time>2020-11-02 17:01:22</time>
      </trkpt>
      <trkpt lat="41.41691" lon="2.12662">
        <time>2020-11-02 17:01:26</time>
      </trkpt>
      <trkpt lat="41.41691" lon="2.12663">
        <time>2020-11-02 17:01:30</time>
      </trkpt>
      <trkpt lat="41.41695" lon="2.12708">
        <time>2020-11-02 17:01:48</time>
      </trkpt>
      <trkpt lat="41.41694" lon="2.12713">
        <time>2020-11-02 17:01:49</time>
      </trkpt>
      <trkpt lat="41.41689" lon="2.12727">
        <time>2020-11-02 17:01:53</time>
      </trkpt>
      <trkpt lat="41.41685" lon="2.12736">
        <time>2020-11-02 17:01:56</time>
      </trkpt>
      <trkpt lat="41.41681" lon="2.12745">
        <time>2020-11-02 17:01:59</time>
      </trkpt>
      <trkpt lat="41.41678" lon="2.12756">
        <time>2020-11-02 17:02:02</time>
      </trkpt>
      <trkpt lat="41.41676" lon="2.12758">
        <time>2020-11-02 17:02:03</time>
      </trkpt>
      <trkpt lat="41.41673" lon="2.12777">
        <time>2020-11-02 17:02:08</time>
      </trkpt>
      <trkpt lat="41.41672" lon="2.12785">
        <time>2020-11-02 17:02:10</time>
      </trkpt>
      <trkpt lat="41.41668" lon="2.12795">
        <time>2020-11-02 17:02:14</time>
      </trkpt>
      <trkpt lat="41.41667" lon="2.12798">
        <time>2020-11-02 17:02:15</time>
      </trkpt>
      <trkpt lat="41.41665" lon="2.12806">
        <time>2020-11-02 17:02:17</time>
      </trkpt>
      <trkpt lat="41.41663" lon="2.1282">
        <time>2020-11-02 17:02:21</time>
      </trkpt>
      <trkpt lat="41.41663" lon="2.1283">
        <time>2020-11-02 17:02:24</time>
      </trkpt>
      <trkpt lat="41.41664" lon="2.12836">
        <time>2020-11-02 17:02:26</time>
      </trkpt>
      <trkpt lat="41.41667" lon="2.12842">
        <time>2020-11-02 17:02:28</time>
      </trkpt>
      <trkpt lat="41.41676" lon="2.12852">
        <time>2020-11-02 17:02:32</time>
      </trkpt>
      <trkpt lat="41.4168" lon="2.12856">
        <time>2020-11-02 17:02:34</time>
      </trkpt>
      <trkpt lat="41.41689" lon="2.1287">
        <time>2020-11-02 17:02:39</time>
      </trkpt>
      <trkpt lat="41.417" lon="2.12878">
        <time>2020-11-02 17:02:43</time>
      </trkpt>
      <trkpt lat="41.41702" lon="2.12879">
        <time>2020-11-02 17:02:44</time>
      </trkpt>
      <trkpt lat="41.41708" lon="2.12882">
        <time>2020-11-02 17:02:46</time>
      </trkpt>
      <trkpt lat="41.41715" lon="2.12888">
        <time>2020-11-02 17:02:49</time>
      </trkpt>
      <trkpt lat="41.41718" lon="2.12891">
        <time>2020-11-02 17:02:51</time>
      </trkpt>
      <trkpt lat="41.4172" lon="2.12893">
        <time>2020-11-02 17:02:53</time>
      </trkpt>
      <trkpt lat="41.41722" lon="2.12895">
        <time>2020-11-02 17:02:57</time>
      </trkpt>
      <trkpt lat="41.4182" lon="2.12779">
        <time>2020-11-02 15:57:48</time>
      </trkpt>
      <trkpt lat="41.4182" lon="2.12782">
        <time>2020-11-02 15:57:49</time>
      </trkpt>
      <trkpt lat="41.4182" lon="2.12792">
        <time>2020-11-02 15:57:53</time>
      </trkpt>
      <trkpt lat="41.41816" lon="2.12797">
        <time>2020-11-02 15:57:56</time>
      </trkpt>
      <trkpt lat="41.41811" lon="2.12806">
        <time>2020-11-02 15:57:59</time>
      </trkpt>
      <trkpt lat="41.4181" lon="2.12808">
        <time>2020-11-02 15:58:00</time>
      </trkpt>
      <trkpt lat="41.41807" lon="2.12812">
        <time>2020-11-02 15:58:02</time>
      </trkpt>
      <trkpt lat="41.41805" lon="2.12817">
        <time>2020-11-02 15:58:04</time>
      </trkpt>
      <trkpt lat="41.41801" lon="2.12822">
        <time>2020-11-02 15:58:06</time>
      </trkpt>
      <trkpt lat="41.41796" lon="2.12836">
        <time>2020-11-02 15:58:10</time>
      </trkpt>
      <trkpt lat="41.41795" lon="2.12839">
        <time>2020-11-02 15:58:11</time>
      </trkpt>
      <trkpt lat="41.41787" lon="2.12848">
        <time>2020-11-02 15:58:15</time>
      </trkpt>
      <trkpt lat="41.41781" lon="2.12851">
        <time>2020-11-02 15:58:17</time>
      </trkpt>
      <trkpt lat="41.41775" lon="2.12855">
        <time>2020-11-02 15:58:20</time>
      </trkpt>
      <trkpt lat="41.41766" lon="2.12862">
        <time>2020-11-02 15:58:24</time>
      </trkpt>
      <trkpt lat="41.41764" lon="2.12865">
        <time>2020-11-02 15:58:25</time>
      </trkpt>
      <trkpt lat="41.41758" lon="2.12877">
        <time>2020-11-02 15:58:29</time>
      </trkpt>
      <trkpt lat="41.4175" lon="2.12886">
        <time>2020-11-02 15:58:34</time>
      </trkpt>
      <trkpt lat="41.41745" lon="2.12888">
        <time>2020-11-02 15:58:36</time>
      </trkpt>
      <trkpt lat="41.41742" lon="2.12889">
        <time>2020-11-02 15:58:38</time>
      </trkpt>
      <trkpt lat="41.41737" lon="2.12888">
        <time>2020-11-02 15:58:40</time>
      </trkpt>
      <trkpt lat="41.41729" lon="2.12883">
        <time>2020-11-02 15:58:43</time>
      </trkpt>
      <trkpt lat="41.41722" lon="2.12874">
        <time>2020-11-02 15:58:47</time>
      </trkpt>
      <trkpt lat="41.4172" lon="2.12871">
        <time>2020-11-02 15:58:49</time>
      </trkpt>
      <trkpt lat="41.41715" lon="2.12868">
        <time>2020-11-02 15:58:52</time>
      </trkpt>
      <trkpt lat="41.41713" lon="2.12867">
        <time>2020-11-02 15:58:53</time>
      </trkpt>
      <trkpt lat="41.41701" lon="2.12861">
        <time>2020-11-02 15:58:57</time>
      </trkpt>
      <trkpt lat="41.41684" lon="2.12852">
        <time>2020-11-02 15:59:03</time>
      </trkpt>
      <trkpt lat="41.41678" lon="2.1285">
        <time>2020-11-02 15:59:05</time>
      </trkpt>
      <trkpt lat="41.41668" lon="2.12841">
        <time>2020-11-02 15:59:10</time>
      </trkpt>
      <trkpt lat="41.41664" lon="2.12828">
        <time>2020-11-02 15:59:14</time>
      </trkpt>
      <trkpt lat="41.41663" lon="2.12808">
        <time>2020-11-02 15:59:20</time>
      </trkpt>
      <trkpt lat="41.41663" lon="2.12793">
        <time>2020-11-02 15:59:24</time>
      </trkpt>
      <trkpt lat="41.41663" lon="2.12785">
        <time>2020-11-02 15:59:26</time>
      </trkpt>
      <trkpt lat="41.41662" lon="2.12769">
        <time>2020-11-02 15:59:30</time>
      </trkpt>
      <trkpt lat="41.41662" lon="2.12752">
        <time>2020-11-02 15:59:35</time>
      </trkpt>
      <trkpt lat="41.41667" lon="2.1274">
        <time>2020-11-02 15:59:39</time>
      </trkpt>
      <trkpt lat="41.41674" lon="2.1272">
        <time>2020-11-02 15:59:45</time>
      </trkpt>
      <trkpt lat="41.41677" lon="2.12697">
        <time>2020-11-02 15:59:51</time>
      </trkpt>
      <trkpt lat="41.4168" lon="2.12675">
        <time>2020-11-02 15:59:57</time>
      </trkpt>
      <trkpt lat="41.41677" lon="2.12654">
        <time>2020-11-02 16:00:04</time>
      </trkpt>
      <trkpt lat="41.41674" lon="2.12651">
        <time>2020-11-02 16:00:05</time>
      </trkpt>
      <trkpt lat="41.41665" lon="2.12645">
        <time>2020-11-02 16:00:08</time>
      </trkpt>
      <trkpt lat="41.41657" lon="2.12642">
        <time>2020-11-02 16:00:12</time>
      </trkpt>
      <trkpt lat="41.41653" lon="2.1264">
        <time>2020-11-02 16:00:14</time>
      </trkpt>
      <trkpt lat="41.41646" lon="2.12639">
        <time>2020-11-02 16:00:16</time>
      </trkpt>
      <trkpt lat="41.4163" lon="2.12636">
        <time>2020-11-02 16:00:21</time>
      </trkpt>
      <trkpt lat="41.41627" lon="2.12635">
        <time>2020-11-02 16:00:22</time>
      </trkpt>
      <trkpt lat="41.41615" lon="2.12629">
        <time>2020-11-02 16:00:27</time>
      </trkpt>
      <trkpt lat="41.41599" lon="2.12616">
        <time>2020-11-02 16:00:34</time>
      </trkpt>
      <trkpt lat="41.41586" lon="2.12596">
        <time>2020-11-02 16:00:42</time>
      </trkpt>
      <trkpt lat="41.41581" lon="2.12575">
        <time>2020-11-02 16:00:48</time>
      </trkpt>
      <trkpt lat="41.41574" lon="2.12555">
        <time>2020-11-02 16:00:54</time>
      </trkpt>
      <trkpt lat="41.41564" lon="2.12541">
        <time>2020-11-02 16:00:59</time>
      </trkpt>
      <trkpt lat="41.41545" lon="2.12528">
        <time>2020-11-02 16:01:05</time>
      </trkpt>
      <trkpt lat="41.41529" lon="2.12517">
        <time>2020-11-02 16:01:11</time>
      </trkpt>
      <trkpt lat="41.41521" lon="2.1251">
        <time>2020-11-02 16:01:16</time>
      </trkpt>
      <trkpt lat="41.41508" lon="2.12502">
        <time>2020-11-02 16:01:21</time>
      </trkpt>
      <trkpt lat="41.41499" lon="2.12497">
        <time>2020-11-02 16:01:25</time>
      </trkpt>
      <trkpt lat="41.41484" lon="2.12493">
        <time>2020-11-02 16:01:31</time>
      </trkpt>
      <trkpt lat="41.41469" lon="2.125">
        <time>2020-11-02 16:01:37</time>
      </trkpt>
      <trkpt lat="41.41462" lon="2.12502">
        <time>2020-11-02 16:01:39</time>
      </trkpt>
      <trkpt lat="41.41452" lon="2.12503">
        <time>2020-11-02 16:01:42</time>
      </trkpt>
      <trkpt lat="41.41432" lon="2.12511">
        <time>2020-11-02 16:01:49</time>
      </trkpt>
      <trkpt lat="41.41419" lon="2.1252">
        <time>2020-11-02 16:01:54</time>
      </trkpt>
      <trkpt lat="41.41406" lon="2.12526">
        <time>2020-11-02 16:01:59</time>
      </trkpt>
      <trkpt lat="41.414" lon="2.12532">
        <time>2020-11-02 16:02:02</time>
      </trkpt>
      <trkpt lat="41.41399" lon="2.12533">
        <time>2020-11-02 16:02:03</time>
      </trkpt>
      <trkpt lat="41.41397" lon="2.12533">
        <time>2020-11-02 16:02:04</time>
      </trkpt>
      <trkpt lat="41.41392" lon="2.12526">
        <time>2020-11-02 16:02:08</time>
      </trkpt>
      <trkpt lat="41.41391" lon="2.12507">
        <time>2020-11-02 16:02:14</time>
      </trkpt>
      <trkpt lat="41.41391" lon="2.12501">
        <time>2020-11-02 16:02:16</time>
      </trkpt>
      <trkpt lat="41.41391" lon="2.12478">
        <time>2020-11-02 16:02:23</time>
      </trkpt>
      <trkpt lat="41.41389" lon="2.12455">
        <time>2020-11-02 16:02:29</time>
      </trkpt>
      <trkpt lat="41.41384" lon="2.12438">
        <time>2020-11-02 16:02:34</time>
      </trkpt>
      <trkpt lat="41.41377" lon="2.12426">
        <time>2020-11-02 16:02:38</time>
      </trkpt>
      <trkpt lat="41.41365" lon="2.12412">
        <time>2020-11-02 16:02:44</time>
      </trkpt>
      <trkpt lat="41.41361" lon="2.12395">
        <time>2020-11-02 16:02:49</time>
      </trkpt>
      <trkpt lat="41.41363" lon="2.12374">
        <time>2020-11-02 16:02:55</time>
      </trkpt>
      <trkpt lat="41.41372" lon="2.12353">
        <time>2020-11-02 16:03:01</time>
      </trkpt>
      <trkpt lat="41.41379" lon="2.1233">
        <time>2020-11-02 16:03:08</time>
      </trkpt>
      <trkpt lat="41.41381" lon="2.12328">
        <time>2020-11-02 16:03:09</time>
      </trkpt>
      <trkpt lat="41.41392" lon="2.12316">
        <time>2020-11-02 16:03:14</time>
      </trkpt>
      <trkpt lat="41.41397" lon="2.12312">
        <time>2020-11-02 16:03:17</time>
      </trkpt>
      <trkpt lat="41.414" lon="2.12311">
        <time>2020-11-02 16:03:18</time>
      </trkpt>
      <trkpt lat="41.41403" lon="2.12311">
        <time>2020-11-02 16:03:19</time>
      </trkpt>
      <trkpt lat="41.4142" lon="2.12315">
        <time>2020-11-02 16:03:25</time>
      </trkpt>
      <trkpt lat="41.41433" lon="2.12321">
        <time>2020-11-02 16:03:30</time>
      </trkpt>
      <trkpt lat="41.41439" lon="2.12322">
        <time>2020-11-02 16:03:32</time>
      </trkpt>
      <trkpt lat="41.41445" lon="2.12326">
        <time>2020-11-02 16:03:35</time>
      </trkpt>
      <trkpt lat="41.41446" lon="2.12329">
        <time>2020-11-02 16:03:36</time>
      </trkpt>
      <trkpt lat="41.41448" lon="2.12332">
        <time>2020-11-02 16:03:37</time>
      </trkpt>
      <trkpt lat="41.41453" lon="2.12334">
        <time>2020-11-02 16:03:39</time>
      </trkpt>
      <trkpt lat="41.41473" lon="2.12338">
        <time>2020-11-02 16:03:46</time>
      </trkpt>
      <trkpt lat="41.41491" lon="2.12338">
        <time>2020-11-02 16:03:51</time>
      </trkpt>
      <trkpt lat="41.41506" lon="2.12329">
        <time>2020-11-02 16:03:58</time>
      </trkpt>
      <trkpt lat="41.41524" lon="2.1232">
        <time>2020-11-02 16:04:05</time>
      </trkpt>
      <trkpt lat="41.41526" lon="2.12319">
        <time>2020-11-02 16:04:06</time>
      </trkpt>
      <trkpt lat="41.41534" lon="2.1231">
        <time>2020-11-02 16:04:10</time>
      </trkpt>
      <trkpt lat="41.41535" lon="2.12307">
        <time>2020-11-02 16:04:11</time>
      </trkpt>
      <trkpt lat="41.41533" lon="2.12301">
        <time>2020-11-02 16:04:13</time>
      </trkpt>
      <trkpt lat="41.41524" lon="2.12291">
        <time>2020-11-02 16:04:17</time>
      </trkpt>
      <trkpt lat="41.41523" lon="2.12288">
        <time>2020-11-02 16:04:18</time>
      </trkpt>
      <trkpt lat="41.41514" lon="2.1227">
        <time>2020-11-02 16:04:24</time>
      </trkpt>
      <trkpt lat="41.41509" lon="2.12264">
        <time>2020-11-02 16:04:27</time>
      </trkpt>
      <trkpt lat="41.41507" lon="2.12261">
        <time>2020-11-02 16:04:28</time>
      </trkpt>
      <trkpt lat="41.41506" lon="2.12257">
        <time>2020-11-02 16:04:29</time>
      </trkpt>
      <trkpt lat="41.41504" lon="2.1225">
        <time>2020-11-02 16:04:32</time>
      </trkpt>
      <trkpt lat="41.41512" lon="2.12241">
        <time>2020-11-02 16:04:37</time>
      </trkpt>
      <trkpt lat="41.41529" lon="2.12235">
        <time>2020-11-02 16:04:43</time>
      </trkpt>
      <trkpt lat="41.41548" lon="2.12236">
        <time>2020-11-02 16:04:49</time>
      </trkpt>
      <trkpt lat="41.41563" lon="2.12228">
        <time>2020-11-02 16:04:54</time>
      </trkpt>
      <trkpt lat="41.41579" lon="2.12219">
        <time>2020-11-02 16:05:01</time>
      </trkpt>
      <trkpt lat="41.41595" lon="2.12223">
        <time>2020-11-02 16:05:07</time>
      </trkpt>
      <trkpt lat="41.4161" lon="2.1222">
        <time>2020-11-02 16:05:13</time>
      </trkpt>
      <trkpt lat="41.41618" lon="2.12198">
        <time>2020-11-02 16:05:19</time>
      </trkpt>
      <trkpt lat="41.4163" lon="2.12178">
        <time>2020-11-02 16:05:26</time>
      </trkpt>
      <trkpt lat="41.41648" lon="2.12169">
        <time>2020-11-02 16:05:33</time>
      </trkpt>
      <trkpt lat="41.4165" lon="2.12168">
        <time>2020-11-02 16:05:34</time>
      </trkpt>
      <trkpt lat="41.41661" lon="2.12168">
        <time>2020-11-02 16:05:38</time>
      </trkpt>
      <trkpt lat="41.41663" lon="2.1217">
        <time>2020-11-02 16:05:39</time>
      </trkpt>
      <trkpt lat="41.41665" lon="2.12172">
        <time>2020-11-02 16:05:40</time>
      </trkpt>
      <trkpt lat="41.41672" lon="2.12175">
        <time>2020-11-02 16:05:43</time>
      </trkpt>
      <trkpt lat="41.41683" lon="2.12167">
        <time>2020-11-02 16:05:47</time>
      </trkpt>
      <trkpt lat="41.41688" lon="2.12156">
        <time>2020-11-02 16:05:50</time>
      </trkpt>
      <trkpt lat="41.41687" lon="2.12154">
        <time>2020-11-02 16:05:51</time>
      </trkpt>
      <trkpt lat="41.41675" lon="2.12148">
        <time>2020-11-02 16:05:55</time>
      </trkpt>
      <trkpt lat="41.41662" lon="2.12128">
        <time>2020-11-02 16:06:01</time>
      </trkpt>
      <trkpt lat="41.41646" lon="2.12113">
        <time>2020-11-02 16:06:08</time>
      </trkpt>
      <trkpt lat="41.41644" lon="2.1211">
        <time>2020-11-02 16:06:09</time>
      </trkpt>
      <trkpt lat="41.41626" lon="2.12095">
        <time>2020-11-02 16:06:16</time>
      </trkpt>
      <trkpt lat="41.41623" lon="2.12094">
        <time>2020-11-02 16:06:17</time>
      </trkpt>
      <trkpt lat="41.41611" lon="2.12085">
        <time>2020-11-02 16:06:22</time>
      </trkpt>
      <trkpt lat="41.416" lon="2.1207">
        <time>2020-11-02 16:06:28</time>
      </trkpt>
      <trkpt lat="41.41598" lon="2.12059">
        <time>2020-11-02 16:06:31</time>
      </trkpt>
      <trkpt lat="41.41599" lon="2.12056">
        <time>2020-11-02 16:06:32</time>
      </trkpt>
      <trkpt lat="41.41609" lon="2.12037">
        <time>2020-11-02 16:06:38</time>
      </trkpt>
      <trkpt lat="41.41619" lon="2.12018">
        <time>2020-11-02 16:06:45</time>
      </trkpt>
      <trkpt lat="41.4162" lon="2.12015">
        <time>2020-11-02 16:06:46</time>
      </trkpt>
      <trkpt lat="41.41619" lon="2.12009">
        <time>2020-11-02 16:06:48</time>
      </trkpt>
      <trkpt lat="41.41615" lon="2.12003">
        <time>2020-11-02 16:06:50</time>
      </trkpt>
      <trkpt lat="41.416" lon="2.11998">
        <time>2020-11-02 16:06:54</time>
      </trkpt>
      <trkpt lat="41.41598" lon="2.11997">
        <time>2020-11-02 16:06:55</time>
      </trkpt>
      <trkpt lat="41.41589" lon="2.11994">
        <time>2020-11-02 16:06:58</time>
      </trkpt>
      <trkpt lat="41.41579" lon="2.11995">
        <time>2020-11-02 16:07:03</time>
      </trkpt>
      <trkpt lat="41.41559" lon="2.11997">
        <time>2020-11-02 16:07:09</time>
      </trkpt>
      <trkpt lat="41.41556" lon="2.11997">
        <time>2020-11-02 16:07:10</time>
      </trkpt>
      <trkpt lat="41.41537" lon="2.12001">
        <time>2020-11-02 16:07:16</time>
      </trkpt>
      <trkpt lat="41.41518" lon="2.12012">
        <time>2020-11-02 16:07:23</time>
      </trkpt>
      <trkpt lat="41.41516" lon="2.12014">
        <time>2020-11-02 16:07:24</time>
      </trkpt>
      <trkpt lat="41.41498" lon="2.12017">
        <time>2020-11-02 16:07:30</time>
      </trkpt>
      <trkpt lat="41.41491" lon="2.1201">
        <time>2020-11-02 16:07:34</time>
      </trkpt>
      <trkpt lat="41.4149" lon="2.12006">
        <time>2020-11-02 16:07:35</time>
      </trkpt>
      <trkpt lat="41.4149" lon="2.11988">
        <time>2020-11-02 16:07:41</time>
      </trkpt>
      <trkpt lat="41.4149" lon="2.11985">
        <time>2020-11-02 16:07:42</time>
      </trkpt>
      <trkpt lat="41.41492" lon="2.11975">
        <time>2020-11-02 16:07:45</time>
      </trkpt>
      <trkpt lat="41.41496" lon="2.11952">
        <time>2020-11-02 16:07:51</time>
      </trkpt>
      <trkpt lat="41.41497" lon="2.11947">
        <time>2020-11-02 16:07:52</time>
      </trkpt>
      <trkpt lat="41.41496" lon="2.11935">
        <time>2020-11-02 16:07:55</time>
      </trkpt>
      <trkpt lat="41.41496" lon="2.1193">
        <time>2020-11-02 16:07:56</time>
      </trkpt>
      <trkpt lat="41.41493" lon="2.11907">
        <time>2020-11-02 16:08:02</time>
      </trkpt>
      <trkpt lat="41.41491" lon="2.11888">
        <time>2020-11-02 16:08:07</time>
      </trkpt>
      <trkpt lat="41.41482" lon="2.11876">
        <time>2020-11-02 16:08:11</time>
      </trkpt>
      <trkpt lat="41.41475" lon="2.11869">
        <time>2020-11-02 16:08:14</time>
      </trkpt>
      <trkpt lat="41.41468" lon="2.11869">
        <time>2020-11-02 16:08:16</time>
      </trkpt>
      <trkpt lat="41.41465" lon="2.1187">
        <time>2020-11-02 16:08:17</time>
      </trkpt>
      <trkpt lat="41.41458" lon="2.11872">
        <time>2020-11-02 16:08:19</time>
      </trkpt>
      <trkpt lat="41.41445" lon="2.11875">
        <time>2020-11-02 16:08:23</time>
      </trkpt>
      <trkpt lat="41.41443" lon="2.11874">
        <time>2020-11-02 16:08:24</time>
      </trkpt>
      <trkpt lat="41.4144" lon="2.11876">
        <time>2020-11-02 16:08:25</time>
      </trkpt>
      <trkpt lat="41.41431" lon="2.11882">
        <time>2020-11-02 16:08:28</time>
      </trkpt>
      <trkpt lat="41.41417" lon="2.11893">
        <time>2020-11-02 16:08:34</time>
      </trkpt>
      <trkpt lat="41.41406" lon="2.11897">
        <time>2020-11-02 16:08:37</time>
      </trkpt>
      <trkpt lat="41.41403" lon="2.11903">
        <time>2020-11-02 16:08:39</time>
      </trkpt>
      <trkpt lat="41.41393" lon="2.11909">
        <time>2020-11-02 16:08:43</time>
      </trkpt>
      <trkpt lat="41.41387" lon="2.11913">
        <time>2020-11-02 16:08:45</time>
      </trkpt>
      <trkpt lat="41.41375" lon="2.11915">
        <time>2020-11-02 16:08:49</time>
      </trkpt>
      <trkpt lat="41.41372" lon="2.11915">
        <time>2020-11-02 16:08:50</time>
      </trkpt>
      <trkpt lat="41.41364" lon="2.11918">
        <time>2020-11-02 16:08:53</time>
      </trkpt>
      <trkpt lat="41.4135" lon="2.11923">
        <time>2020-11-02 16:08:58</time>
      </trkpt>
      <trkpt lat="41.41333" lon="2.11933">
        <time>2020-11-02 16:09:04</time>
      </trkpt>
      <trkpt lat="41.41324" lon="2.11941">
        <time>2020-11-02 16:09:08</time>
      </trkpt>
      <trkpt lat="41.41313" lon="2.11952">
        <time>2020-11-02 16:09:13</time>
      </trkpt>
      <trkpt lat="41.41309" lon="2.11955">
        <time>2020-11-02 16:09:15</time>
      </trkpt>
      <trkpt lat="41.41301" lon="2.11956">
        <time>2020-11-02 16:09:18</time>
      </trkpt>
      <trkpt lat="41.41283" lon="2.11954">
        <time>2020-11-02 16:09:25</time>
      </trkpt>
      <trkpt lat="41.41265" lon="2.11951">
        <time>2020-11-02 16:09:31</time>
      </trkpt>
      <trkpt lat="41.41262" lon="2.1195">
        <time>2020-11-02 16:09:32</time>
      </trkpt>
      <trkpt lat="41.4125" lon="2.11943">
        <time>2020-11-02 16:09:37</time>
      </trkpt>
      <trkpt lat="41.41244" lon="2.11932">
        <time>2020-11-02 16:09:41</time>
      </trkpt>
      <trkpt lat="41.41247" lon="2.11912">
        <time>2020-11-02 16:09:46</time>
      </trkpt>
      <trkpt lat="41.41257" lon="2.11892">
        <time>2020-11-02 16:09:52</time>
      </trkpt>
      <trkpt lat="41.4126" lon="2.11888">
        <time>2020-11-02 16:09:53</time>
      </trkpt>
      <trkpt lat="41.41272" lon="2.11878">
        <time>2020-11-02 16:09:58</time>
      </trkpt>
      <trkpt lat="41.41286" lon="2.11875">
        <time>2020-11-02 16:10:04</time>
      </trkpt>
      <trkpt lat="41.41304" lon="2.11877">
        <time>2020-11-02 16:10:11</time>
      </trkpt>
      <trkpt lat="41.41311" lon="2.11878">
        <time>2020-11-02 16:10:16</time>
      </trkpt>
      <trkpt lat="41.41322" lon="2.11878">
        <time>2020-11-02 16:10:23</time>
      </trkpt>
      <trkpt lat="41.41324" lon="2.11878">
        <time>2020-11-02 16:10:25</time>
      </trkpt>
      <trkpt lat="41.4133" lon="2.11877">
        <time>2020-11-02 16:10:29</time>
      </trkpt>
      <trkpt lat="41.41335" lon="2.11876">
        <time>2020-11-02 16:10:33</time>
      </trkpt>
      <trkpt lat="41.41336" lon="2.11876">
        <time>2020-11-02 16:10:34</time>
      </trkpt>
      <trkpt lat="41.41343" lon="2.1187">
        <time>2020-11-02 16:10:39</time>
      </trkpt>
      <trkpt lat="41.41348" lon="2.11865">
        <time>2020-11-02 16:10:43</time>
      </trkpt>
      <trkpt lat="41.41354" lon="2.11854">
        <time>2020-11-02 16:10:50</time>
      </trkpt>
      <trkpt lat="41.41359" lon="2.11844">
        <time>2020-11-02 16:10:57</time>
      </trkpt>
      <trkpt lat="41.4136" lon="2.11839">
        <time>2020-11-02 16:10:59</time>
      </trkpt>
      <trkpt lat="41.41363" lon="2.11825">
        <time>2020-11-02 16:11:05</time>
      </trkpt>
      <trkpt lat="41.41363" lon="2.11805">
        <time>2020-11-02 16:11:12</time>
      </trkpt>
      <trkpt lat="41.41363" lon="2.11786">
        <time>2020-11-02 16:11:17</time>
      </trkpt>
      <trkpt lat="41.41362" lon="2.11778">
        <time>2020-11-02 16:11:19</time>
      </trkpt>
      <trkpt lat="41.41358" lon="2.11753">
        <time>2020-11-02 16:11:26</time>
      </trkpt>
      <trkpt lat="41.4135" lon="2.11728">
        <time>2020-11-02 16:11:33</time>
      </trkpt>
      <trkpt lat="41.4135" lon="2.11724">
        <time>2020-11-02 16:11:34</time>
      </trkpt>
      <trkpt lat="41.41348" lon="2.11699">
        <time>2020-11-02 16:11:41</time>
      </trkpt>
      <trkpt lat="41.41353" lon="2.11676">
        <time>2020-11-02 16:11:48</time>
      </trkpt>
      <trkpt lat="41.41366" lon="2.11654">
        <time>2020-11-02 16:11:55</time>
      </trkpt>
      <trkpt lat="41.41384" lon="2.11641">
        <time>2020-11-02 16:12:02</time>
      </trkpt>
      <trkpt lat="41.41385" lon="2.1164">
        <time>2020-11-02 16:12:03</time>
      </trkpt>
      <trkpt lat="41.41402" lon="2.11629">
        <time>2020-11-02 16:12:10</time>
      </trkpt>
      <trkpt lat="41.41416" lon="2.11612">
        <time>2020-11-02 16:12:16</time>
      </trkpt>
      <trkpt lat="41.41417" lon="2.11591">
        <time>2020-11-02 16:12:21</time>
      </trkpt>
      <trkpt lat="41.4141" lon="2.11579">
        <time>2020-11-02 16:12:25</time>
      </trkpt>
      <trkpt lat="41.41407" lon="2.11577">
        <time>2020-11-02 16:12:26</time>
      </trkpt>
      <trkpt lat="41.41398" lon="2.11569">
        <time>2020-11-02 16:12:30</time>
      </trkpt>
      <trkpt lat="41.4139" lon="2.11562">
        <time>2020-11-02 16:12:33</time>
      </trkpt>
      <trkpt lat="41.41377" lon="2.11551">
        <time>2020-11-02 16:12:38</time>
      </trkpt>
      <trkpt lat="41.41373" lon="2.11549">
        <time>2020-11-02 16:12:39</time>
      </trkpt>
      <trkpt lat="41.41362" lon="2.11543">
        <time>2020-11-02 16:12:43</time>
      </trkpt>
      <trkpt lat="41.41359" lon="2.11541">
        <time>2020-11-02 16:12:44</time>
      </trkpt>
      <trkpt lat="41.41344" lon="2.1153">
        <time>2020-11-02 16:12:50</time>
      </trkpt>
      <trkpt lat="41.41341" lon="2.11528">
        <time>2020-11-02 16:12:51</time>
      </trkpt>
      <trkpt lat="41.41327" lon="2.11523">
        <time>2020-11-02 16:12:56</time>
      </trkpt>
      <trkpt lat="41.41315" lon="2.11514">
        <time>2020-11-02 16:13:01</time>
      </trkpt>
      <trkpt lat="41.41314" lon="2.11511">
        <time>2020-11-02 16:13:02</time>
      </trkpt>
      <trkpt lat="41.41308" lon="2.11493">
        <time>2020-11-02 16:13:08</time>
      </trkpt>
      <trkpt lat="41.41308" lon="2.1147">
        <time>2020-11-02 16:13:14</time>
      </trkpt>
      <trkpt lat="41.41302" lon="2.11454">
        <time>2020-11-02 16:13:19</time>
      </trkpt>
      <trkpt lat="41.41288" lon="2.11441">
        <time>2020-11-02 16:13:25</time>
      </trkpt>
      <trkpt lat="41.4127" lon="2.11432">
        <time>2020-11-02 16:13:32</time>
      </trkpt>
      <trkpt lat="41.41254" lon="2.11428">
        <time>2020-11-02 16:13:38</time>
      </trkpt>
      <trkpt lat="41.41235" lon="2.11422">
        <time>2020-11-02 16:13:46</time>
      </trkpt>
      <trkpt lat="41.41231" lon="2.1142">
        <time>2020-11-02 16:13:48</time>
      </trkpt>
      <trkpt lat="41.41219" lon="2.11401">
        <time>2020-11-02 16:13:55</time>
      </trkpt>
      <trkpt lat="41.41217" lon="2.11378">
        <time>2020-11-02 16:14:02</time>
      </trkpt>
      <trkpt lat="41.41225" lon="2.11356">
        <time>2020-11-02 16:14:09</time>
      </trkpt>
      <trkpt lat="41.41227" lon="2.11353">
        <time>2020-11-02 16:14:10</time>
      </trkpt>
      <trkpt lat="41.41239" lon="2.11331">
        <time>2020-11-02 16:14:17</time>
      </trkpt>
      <trkpt lat="41.41244" lon="2.11327">
        <time>2020-11-02 16:14:19</time>
      </trkpt>
      <trkpt lat="41.41261" lon="2.11311">
        <time>2020-11-02 16:14:26</time>
      </trkpt>
      <trkpt lat="41.41271" lon="2.11296">
        <time>2020-11-02 16:14:32</time>
      </trkpt>
      <trkpt lat="41.41274" lon="2.11292">
        <time>2020-11-02 16:14:33</time>
      </trkpt>
      <trkpt lat="41.41281" lon="2.11274">
        <time>2020-11-02 16:14:38</time>
      </trkpt>
      <trkpt lat="41.41279" lon="2.11264">
        <time>2020-11-02 16:14:41</time>
      </trkpt>
      <trkpt lat="41.41277" lon="2.11261">
        <time>2020-11-02 16:14:42</time>
      </trkpt>
      <trkpt lat="41.41263" lon="2.1125">
        <time>2020-11-02 16:14:47</time>
      </trkpt>
      <trkpt lat="41.4125" lon="2.11236">
        <time>2020-11-02 16:14:53</time>
      </trkpt>
      <trkpt lat="41.4124" lon="2.1122">
        <time>2020-11-02 16:14:59</time>
      </trkpt>
      <trkpt lat="41.41235" lon="2.11211">
        <time>2020-11-02 16:15:02</time>
      </trkpt>
      <trkpt lat="41.41236" lon="2.11204">
        <time>2020-11-02 16:15:04</time>
      </trkpt>
      <trkpt lat="41.41242" lon="2.11179">
        <time>2020-11-02 16:15:10</time>
      </trkpt>
      <trkpt lat="41.41247" lon="2.11164">
        <time>2020-11-02 16:15:14</time>
      </trkpt>
      <trkpt lat="41.41257" lon="2.11148">
        <time>2020-11-02 16:15:19</time>
      </trkpt>
      <trkpt lat="41.41259" lon="2.11147">
        <time>2020-11-02 16:15:20</time>
      </trkpt>
      <trkpt lat="41.41264" lon="2.11143">
        <time>2020-11-02 16:15:22</time>
      </trkpt>
      <trkpt lat="41.41277" lon="2.11126">
        <time>2020-11-02 16:15:29</time>
      </trkpt>
      <trkpt lat="41.41279" lon="2.11125">
        <time>2020-11-02 16:15:30</time>
      </trkpt>
      <trkpt lat="41.41287" lon="2.11122">
        <time>2020-11-02 16:15:33</time>
      </trkpt>
      <trkpt lat="41.41301" lon="2.11117">
        <time>2020-11-02 16:15:39</time>
      </trkpt>
      <trkpt lat="41.41314" lon="2.11114">
        <time>2020-11-02 16:15:44</time>
      </trkpt>
      <trkpt lat="41.41316" lon="2.11116">
        <time>2020-11-02 16:15:45</time>
      </trkpt>
      <trkpt lat="41.41321" lon="2.11116">
        <time>2020-11-02 16:15:47</time>
      </trkpt>
      <trkpt lat="41.41324" lon="2.11116">
        <time>2020-11-02 16:15:48</time>
      </trkpt>
      <trkpt lat="41.41339" lon="2.11115">
        <time>2020-11-02 16:15:53</time>
      </trkpt>
      <trkpt lat="41.41352" lon="2.11113">
        <time>2020-11-02 16:15:57</time>
      </trkpt>
      <trkpt lat="41.41354" lon="2.11113">
        <time>2020-11-02 16:15:58</time>
      </trkpt>
      <trkpt lat="41.41367" lon="2.11115">
        <time>2020-11-02 16:16:04</time>
      </trkpt>
      <trkpt lat="41.41369" lon="2.11115">
        <time>2020-11-02 16:16:05</time>
      </trkpt>
      <trkpt lat="41.41374" lon="2.11118">
        <time>2020-11-02 16:16:08</time>
      </trkpt>
      <trkpt lat="41.41376" lon="2.1112">
        <time>2020-11-02 16:16:10</time>
      </trkpt>
      <trkpt lat="41.41378" lon="2.11121">
        <time>2020-11-02 16:16:12</time>
      </trkpt>
      <trkpt lat="41.41382" lon="2.11123">
        <time>2020-11-02 16:16:14</time>
      </trkpt>
      <trkpt lat="41.41383" lon="2.11125">
        <time>2020-11-02 16:16:15</time>
      </trkpt>
      <trkpt lat="41.41386" lon="2.11128">
        <time>2020-11-02 16:16:19</time>
      </trkpt>
      <trkpt lat="41.41387" lon="2.11127">
        <time>2020-11-02 16:16:20</time>
      </trkpt>
      <trkpt lat="41.41389" lon="2.11127">
        <time>2020-11-02 16:16:21</time>
      </trkpt>
      <trkpt lat="41.41393" lon="2.11126">
        <time>2020-11-02 16:16:24</time>
      </trkpt>
      <trkpt lat="41.41399" lon="2.11126">
        <time>2020-11-02 16:16:28</time>
      </trkpt>
      <trkpt lat="41.41401" lon="2.11126">
        <time>2020-11-02 16:16:30</time>
      </trkpt>
      <trkpt lat="41.41403" lon="2.11126">
        <time>2020-11-02 16:16:32</time>
      </trkpt>
      <trkpt lat="41.41406" lon="2.11127">
        <time>2020-11-02 16:16:35</time>
      </trkpt>
      <trkpt lat="41.41408" lon="2.11129">
        <time>2020-11-02 16:16:37</time>
      </trkpt>
      <trkpt lat="41.41412" lon="2.11133">
        <time>2020-11-02 16:16:41</time>
      </trkpt>
      <trkpt lat="41.41415" lon="2.11135">
        <time>2020-11-02 16:16:43</time>
      </trkpt>
      <trkpt lat="41.41417" lon="2.11136">
        <time>2020-11-02 16:16:45</time>
      </trkpt>
      <trkpt lat="41.41418" lon="2.11138">
        <time>2020-11-02 16:16:46</time>
      </trkpt>
      <trkpt lat="41.4142" lon="2.11141">
        <time>2020-11-02 16:16:49</time>
      </trkpt>
      <trkpt lat="41.41421" lon="2.11141">
        <time>2020-11-02 16:16:50</time>
      </trkpt>
      <trkpt lat="41.41424" lon="2.11143">
        <time>2020-11-02 16:16:52</time>
      </trkpt>
      <trkpt lat="41.41429" lon="2.11147">
        <time>2020-11-02 16:16:56</time>
      </trkpt>
      <trkpt lat="41.41433" lon="2.1115">
        <time>2020-11-02 16:17:00</time>
      </trkpt>
      <trkpt lat="41.41437" lon="2.11154">
        <time>2020-11-02 16:17:04</time>
      </trkpt>
      <trkpt lat="41.41441" lon="2.11157">
        <time>2020-11-02 16:17:08</time>
      </trkpt>
      <trkpt lat="41.41447" lon="2.11161">
        <time>2020-11-02 16:17:13</time>
      </trkpt>
      <trkpt lat="41.41448" lon="2.11162">
        <time>2020-11-02 16:17:14</time>
      </trkpt>
      <trkpt lat="41.41451" lon="2.11163">
        <time>2020-11-02 16:17:18</time>
      </trkpt>
      <trkpt lat="41.41454" lon="2.11167">
        <time>2020-11-02 16:17:22</time>
      </trkpt>
      <trkpt lat="41.41455" lon="2.11166">
        <time>2020-11-02 16:17:23</time>
      </trkpt>
      <trkpt lat="41.41456" lon="2.11166">
        <time>2020-11-02 16:17:24</time>
      </trkpt>
      <trkpt lat="41.41459" lon="2.11168">
        <time>2020-11-02 16:17:27</time>
      </trkpt>
      <trkpt lat="41.41461" lon="2.11169">
        <time>2020-11-02 16:17:28</time>
      </trkpt>
      <trkpt lat="41.41464" lon="2.1117">
        <time>2020-11-02 16:17:30</time>
      </trkpt>
      <trkpt lat="41.41466" lon="2.11173">
        <time>2020-11-02 16:17:33</time>
      </trkpt>
      <trkpt lat="41.41472" lon="2.11176">
        <time>2020-11-02 16:17:38</time>
      </trkpt>
      <trkpt lat="41.41474" lon="2.11174">
        <time>2020-11-02 16:17:42</time>
      </trkpt>
      <trkpt lat="41.41474" lon="2.11173">
        <time>2020-11-02 16:17:43</time>
      </trkpt>
      <trkpt lat="41.41475" lon="2.11171">
        <time>2020-11-02 16:17:46</time>
      </trkpt>
      <trkpt lat="41.41477" lon="2.11168">
        <time>2020-11-02 16:17:50</time>
      </trkpt>
      <trkpt lat="41.41477" lon="2.11168">
        <time>2020-11-02 16:17:51</time>
      </trkpt>
      <trkpt lat="41.41479" lon="2.11168">
        <time>2020-11-02 16:17:52</time>
      </trkpt>
      <trkpt lat="41.41481" lon="2.11169">
        <time>2020-11-02 16:17:54</time>
      </trkpt>
      <trkpt lat="41.41482" lon="2.11167">
        <time>2020-11-02 16:17:56</time>
      </trkpt>
      <trkpt lat="41.41481" lon="2.11166">
        <time>2020-11-02 16:17:57</time>
      </trkpt>
      <trkpt lat="41.41482" lon="2.11165">
        <time>2020-11-02 16:17:58</time>
      </trkpt>
      <trkpt lat="41.41483" lon="2.11162">
        <time>2020-11-02 16:18:02</time>
      </trkpt>
      <trkpt lat="41.41483" lon="2.11161">
        <time>2020-11-02 16:18:03</time>
      </trkpt>
      <trkpt lat="41.41484" lon="2.11161">
        <time>2020-11-02 16:18:04</time>
      </trkpt>
      <trkpt lat="41.41485" lon="2.11159">
        <time>2020-11-02 16:18:07</time>
      </trkpt>
      <trkpt lat="41.41488" lon="2.11157">
        <time>2020-11-02 16:18:12</time>
      </trkpt>
      <trkpt lat="41.41489" lon="2.11155">
        <time>2020-11-02 16:18:16</time>
      </trkpt>
      <trkpt lat="41.41491" lon="2.11153">
        <time>2020-11-02 16:18:19</time>
      </trkpt>
      <trkpt lat="41.41493" lon="2.1115">
        <time>2020-11-02 16:18:22</time>
      </trkpt>
      <trkpt lat="41.41495" lon="2.11148">
        <time>2020-11-02 16:18:27</time>
      </trkpt>
      <trkpt lat="41.41495" lon="2.11147">
        <time>2020-11-02 16:18:28</time>
      </trkpt>
      <trkpt lat="41.41497" lon="2.11142">
        <time>2020-11-02 16:18:34</time>
      </trkpt>
      <trkpt lat="41.41498" lon="2.11141">
        <time>2020-11-02 16:18:35</time>
      </trkpt>
      <trkpt lat="41.41501" lon="2.11138">
        <time>2020-11-02 16:18:40</time>
      </trkpt>
      <trkpt lat="41.41501" lon="2.11137">
        <time>2020-11-02 16:18:41</time>
      </trkpt>
      <trkpt lat="41.41501" lon="2.11136">
        <time>2020-11-02 16:18:42</time>
      </trkpt>
      <trkpt lat="41.41502" lon="2.11135">
        <time>2020-11-02 16:18:45</time>
      </trkpt>
      <trkpt lat="41.41502" lon="2.11136">
        <time>2020-11-02 16:18:46</time>
      </trkpt>
      <trkpt lat="41.41504" lon="2.11136">
        <time>2020-11-02 16:18:50</time>
      </trkpt>
      <trkpt lat="41.41506" lon="2.11135">
        <time>2020-11-02 16:18:53</time>
      </trkpt>
      <trkpt lat="41.41505" lon="2.11135">
        <time>2020-11-02 16:18:54</time>
      </trkpt>
      <trkpt lat="41.41508" lon="2.11135">
        <time>2020-11-02 16:18:58</time>
      </trkpt>
      <trkpt lat="41.41508" lon="2.11134">
        <time>2020-11-02 16:19:00</time>
      </trkpt>
      <trkpt lat="41.41508" lon="2.11132">
        <time>2020-11-02 16:19:02</time>
      </trkpt>
      <trkpt lat="41.4151" lon="2.11131">
        <time>2020-11-02 16:19:05</time>
      </trkpt>
      <trkpt lat="41.41511" lon="2.1113">
        <time>2020-11-02 16:19:07</time>
      </trkpt>
      <trkpt lat="41.41512" lon="2.1113">
        <time>2020-11-02 16:19:09</time>
      </trkpt>
      <trkpt lat="41.41512" lon="2.11129">
        <time>2020-11-02 16:19:12</time>
      </trkpt>
      <trkpt lat="41.41513" lon="2.11127">
        <time>2020-11-02 16:19:15</time>
      </trkpt>
      <trkpt lat="41.41514" lon="2.11127">
        <time>2020-11-02 16:19:16</time>
      </trkpt>
      <trkpt lat="41.41515" lon="2.11127">
        <time>2020-11-02 16:19:20</time>
      </trkpt>
      <trkpt lat="41.41515" lon="2.11126">
        <time>2020-11-02 16:19:22</time>
      </trkpt>
      <trkpt lat="41.41517" lon="2.11124">
        <time>2020-11-02 16:19:25</time>
      </trkpt>
      <trkpt lat="41.41519" lon="2.11123">
        <time>2020-11-02 16:19:29</time>
      </trkpt>
      <trkpt lat="41.4152" lon="2.11121">
        <time>2020-11-02 16:19:33</time>
      </trkpt>
      <trkpt lat="41.41521" lon="2.11117">
        <time>2020-11-02 16:19:38</time>
      </trkpt>
      <trkpt lat="41.41522" lon="2.11116">
        <time>2020-11-02 16:19:42</time>
      </trkpt>
      <trkpt lat="41.41524" lon="2.11114">
        <time>2020-11-02 16:19:45</time>
      </trkpt>
      <trkpt lat="41.41525" lon="2.11111">
        <time>2020-11-02 16:19:47</time>
      </trkpt>
      <trkpt lat="41.41525" lon="2.11109">
        <time>2020-11-02 16:19:50</time>
      </trkpt>
      <trkpt lat="41.41527" lon="2.11107">
        <time>2020-11-02 16:19:54</time>
      </trkpt>
      <trkpt lat="41.4153" lon="2.11106">
        <time>2020-11-02 16:19:58</time>
      </trkpt>
      <trkpt lat="41.41531" lon="2.11104">
        <time>2020-11-02 16:20:02</time>
      </trkpt>
      <trkpt lat="41.41532" lon="2.11103">
        <time>2020-11-02 16:20:06</time>
      </trkpt>
      <trkpt lat="41.41533" lon="2.11102">
        <time>2020-11-02 16:20:08</time>
      </trkpt>
      <trkpt lat="41.41532" lon="2.11099">
        <time>2020-11-02 16:20:11</time>
      </trkpt>
      <trkpt lat="41.41534" lon="2.11097">
        <time>2020-11-02 16:20:14</time>
      </trkpt>
      <trkpt lat="41.41533" lon="2.11096">
        <time>2020-11-02 16:20:15</time>
      </trkpt>
      <trkpt lat="41.41534" lon="2.11094">
        <time>2020-11-02 16:20:19</time>
      </trkpt>
      <trkpt lat="41.41535" lon="2.11093">
        <time>2020-11-02 16:20:20</time>
      </trkpt>
      <trkpt lat="41.41536" lon="2.11092">
        <time>2020-11-02 16:20:23</time>
      </trkpt>
      <trkpt lat="41.41538" lon="2.11092">
        <time>2020-11-02 16:20:29</time>
      </trkpt>
      <trkpt lat="41.41539" lon="2.11093">
        <time>2020-11-02 16:20:34</time>
      </trkpt>
      <trkpt lat="41.41539" lon="2.11094">
        <time>2020-11-02 16:20:35</time>
      </trkpt>
      <trkpt lat="41.41542" lon="2.11094">
        <time>2020-11-02 16:20:40</time>
      </trkpt>
      <trkpt lat="41.41542" lon="2.11095">
        <time>2020-11-02 16:20:44</time>
      </trkpt>
      <trkpt lat="41.41543" lon="2.11095">
        <time>2020-11-02 16:20:45</time>
      </trkpt>
      <trkpt lat="41.41544" lon="2.11094">
        <time>2020-11-02 16:20:49</time>
      </trkpt>
      <trkpt lat="41.41546" lon="2.11092">
        <time>2020-11-02 16:20:53</time>
      </trkpt>
      <trkpt lat="41.41545" lon="2.11092">
        <time>2020-11-02 16:20:55</time>
      </trkpt>
      <trkpt lat="41.41546" lon="2.1109">
        <time>2020-11-02 16:20:59</time>
      </trkpt>
      <trkpt lat="41.41548" lon="2.11089">
        <time>2020-11-02 16:21:04</time>
      </trkpt>
      <trkpt lat="41.4155" lon="2.11089">
        <time>2020-11-02 16:21:08</time>
      </trkpt>
      <trkpt lat="41.41553" lon="2.11086">
        <time>2020-11-02 16:21:12</time>
      </trkpt>
      <trkpt lat="41.41553" lon="2.11086">
        <time>2020-11-02 16:21:13</time>
      </trkpt>
      <trkpt lat="41.41554" lon="2.11085">
        <time>2020-11-02 16:21:17</time>
      </trkpt>
      <trkpt lat="41.41556" lon="2.11082">
        <time>2020-11-02 16:21:22</time>
      </trkpt>
      <trkpt lat="41.41557" lon="2.1108">
        <time>2020-11-02 16:21:27</time>
      </trkpt>
      <trkpt lat="41.41558" lon="2.1108">
        <time>2020-11-02 16:21:29</time>
      </trkpt>
      <trkpt lat="41.4156" lon="2.11079">
        <time>2020-11-02 16:21:32</time>
      </trkpt>
      <trkpt lat="41.4156" lon="2.11076">
        <time>2020-11-02 16:21:37</time>
      </trkpt>
      <trkpt lat="41.4156" lon="2.11075">
        <time>2020-11-02 16:21:38</time>
      </trkpt>
      <trkpt lat="41.41562" lon="2.11073">
        <time>2020-11-02 16:21:42</time>
      </trkpt>
      <trkpt lat="41.41562" lon="2.11073">
        <time>2020-11-02 16:21:45</time>
      </trkpt>
      <trkpt lat="41.41562" lon="2.11073">
        <time>2020-11-02 16:21:47</time>
      </trkpt>
      <trkpt lat="41.41564" lon="2.11073">
        <time>2020-11-02 16:21:51</time>
      </trkpt>
      <trkpt lat="41.41564" lon="2.11072">
        <time>2020-11-02 16:21:52</time>
      </trkpt>
      <trkpt lat="41.41564" lon="2.11068">
        <time>2020-11-02 16:21:56</time>
      </trkpt>
      <trkpt lat="41.41561" lon="2.11062">
        <time>2020-11-02 16:21:59</time>
      </trkpt>
      <trkpt lat="41.4156" lon="2.1106">
        <time>2020-11-02 16:22:01</time>
      </trkpt>
      <trkpt lat="41.4156" lon="2.11058">
        <time>2020-11-02 16:22:03</time>
      </trkpt>
      <trkpt lat="41.41562" lon="2.11058">
        <time>2020-11-02 16:22:06</time>
      </trkpt>
      <trkpt lat="41.41714" lon="2.11082">
        <time>2020-11-02 16:24:39</time>
      </trkpt>
      <trkpt lat="41.41715" lon="2.11083">
        <time>2020-11-02 16:24:40</time>
      </trkpt>
      <trkpt lat="41.41716" lon="2.11084">
        <time>2020-11-02 16:24:41</time>
      </trkpt>
      <trkpt lat="41.41725" lon="2.11091">
        <time>2020-11-02 16:24:47</time>
      </trkpt>
      <trkpt lat="41.41735" lon="2.11102">
        <time>2020-11-02 16:24:53</time>
      </trkpt>
      <trkpt lat="41.4174" lon="2.11106">
        <time>2020-11-02 16:24:55</time>
      </trkpt>
      <trkpt lat="41.41744" lon="2.1111">
        <time>2020-11-02 16:24:57</time>
      </trkpt>
      <trkpt lat="41.41746" lon="2.11112">
        <time>2020-11-02 16:24:58</time>
      </trkpt>
      <trkpt lat="41.41753" lon="2.11119">
        <time>2020-11-02 16:25:01</time>
      </trkpt>
      <trkpt lat="41.41761" lon="2.11128">
        <time>2020-11-02 16:25:04</time>
      </trkpt>
      <trkpt lat="41.41768" lon="2.11134">
        <time>2020-11-02 16:25:07</time>
      </trkpt>
      <trkpt lat="41.41771" lon="2.11141">
        <time>2020-11-02 16:25:10</time>
      </trkpt>
      <trkpt lat="41.41778" lon="2.11143">
        <time>2020-11-02 16:25:13</time>
      </trkpt>
      <trkpt lat="41.41785" lon="2.11145">
        <time>2020-11-02 16:25:16</time>
      </trkpt>
      <trkpt lat="41.418" lon="2.11145">
        <time>2020-11-02 16:25:22</time>
      </trkpt>
      <trkpt lat="41.41808" lon="2.11146">
        <time>2020-11-02 16:25:25</time>
      </trkpt>
      <trkpt lat="41.4182" lon="2.11148">
        <time>2020-11-02 16:25:30</time>
      </trkpt>
      <trkpt lat="41.41826" lon="2.11148">
        <time>2020-11-02 16:25:32</time>
      </trkpt>
      <trkpt lat="41.41836" lon="2.11147">
        <time>2020-11-02 16:25:36</time>
      </trkpt>
      <trkpt lat="41.41839" lon="2.11145">
        <time>2020-11-02 16:25:38</time>
      </trkpt>
      <trkpt lat="41.41841" lon="2.11143">
        <time>2020-11-02 16:25:39</time>
      </trkpt>
      <trkpt lat="41.41844" lon="2.11142">
        <time>2020-11-02 16:25:40</time>
      </trkpt>
      <trkpt lat="41.41858" lon="2.11136">
        <time>2020-11-02 16:25:46</time>
      </trkpt>
      <trkpt lat="41.41865" lon="2.11131">
        <time>2020-11-02 16:25:51</time>
      </trkpt>
      <trkpt lat="41.41867" lon="2.1113">
        <time>2020-11-02 16:25:52</time>
      </trkpt>
      <trkpt lat="41.41871" lon="2.11131">
        <time>2020-11-02 16:25:54</time>
      </trkpt>
      <trkpt lat="41.41876" lon="2.11135">
        <time>2020-11-02 16:25:56</time>
      </trkpt>
      <trkpt lat="41.41879" lon="2.11142">
        <time>2020-11-02 16:25:59</time>
      </trkpt>
      <trkpt lat="41.4188" lon="2.11151">
        <time>2020-11-02 16:26:02</time>
      </trkpt>
      <trkpt lat="41.41878" lon="2.11159">
        <time>2020-11-02 16:26:05</time>
      </trkpt>
      <trkpt lat="41.41874" lon="2.11165">
        <time>2020-11-02 16:26:08</time>
      </trkpt>
      <trkpt lat="41.41868" lon="2.11174">
        <time>2020-11-02 16:26:12</time>
      </trkpt>
      <trkpt lat="41.41863" lon="2.11179">
        <time>2020-11-02 16:26:14</time>
      </trkpt>
      <trkpt lat="41.41861" lon="2.11186">
        <time>2020-11-02 16:26:17</time>
      </trkpt>
      <trkpt lat="41.41859" lon="2.11191">
        <time>2020-11-02 16:26:19</time>
      </trkpt>
      <trkpt lat="41.41852" lon="2.11198">
        <time>2020-11-02 16:26:22</time>
      </trkpt>
      <trkpt lat="41.4185" lon="2.11203">
        <time>2020-11-02 16:26:24</time>
      </trkpt>
      <trkpt lat="41.41848" lon="2.11206">
        <time>2020-11-02 16:26:25</time>
      </trkpt>
      <trkpt lat="41.4184" lon="2.11219">
        <time>2020-11-02 16:26:31</time>
      </trkpt>
      <trkpt lat="41.41839" lon="2.11222">
        <time>2020-11-02 16:26:32</time>
      </trkpt>
      <trkpt lat="41.41833" lon="2.11228">
        <time>2020-11-02 16:26:36</time>
      </trkpt>
      <trkpt lat="41.41833" lon="2.1123">
        <time>2020-11-02 16:26:37</time>
      </trkpt>
      <trkpt lat="41.41834" lon="2.11232">
        <time>2020-11-02 16:26:38</time>
      </trkpt>
      <trkpt lat="41.41836" lon="2.11239">
        <time>2020-11-02 16:26:41</time>
      </trkpt>
      <trkpt lat="41.41837" lon="2.11242">
        <time>2020-11-02 16:26:42</time>
      </trkpt>
      <trkpt lat="41.41836" lon="2.11249">
        <time>2020-11-02 16:26:44</time>
      </trkpt>
      <trkpt lat="41.41836" lon="2.1126">
        <time>2020-11-02 16:26:47</time>
      </trkpt>
      <trkpt lat="41.41835" lon="2.1127">
        <time>2020-11-02 16:26:50</time>
      </trkpt>
      <trkpt lat="41.41834" lon="2.11275">
        <time>2020-11-02 16:26:52</time>
      </trkpt>
      <trkpt lat="41.41828" lon="2.11289">
        <time>2020-11-02 16:26:57</time>
      </trkpt>
      <trkpt lat="41.41821" lon="2.11309">
        <time>2020-11-02 16:27:04</time>
      </trkpt>
      <trkpt lat="41.41819" lon="2.11312">
        <time>2020-11-02 16:27:05</time>
      </trkpt>
      <trkpt lat="41.41814" lon="2.11328">
        <time>2020-11-02 16:27:11</time>
      </trkpt>
      <trkpt lat="41.41813" lon="2.11331">
        <time>2020-11-02 16:27:12</time>
      </trkpt>
      <trkpt lat="41.41805" lon="2.11345">
        <time>2020-11-02 16:27:17</time>
      </trkpt>
      <trkpt lat="41.41803" lon="2.11347">
        <time>2020-11-02 16:27:18</time>
      </trkpt>
      <trkpt lat="41.41797" lon="2.11355">
        <time>2020-11-02 16:27:22</time>
      </trkpt>
      <trkpt lat="41.41795" lon="2.11358">
        <time>2020-11-02 16:27:23</time>
      </trkpt>
      <trkpt lat="41.41793" lon="2.11375">
        <time>2020-11-02 16:27:29</time>
      </trkpt>
      <trkpt lat="41.41794" lon="2.11381">
        <time>2020-11-02 16:27:31</time>
      </trkpt>
      <trkpt lat="41.41798" lon="2.11398">
        <time>2020-11-02 16:27:36</time>
      </trkpt>
      <trkpt lat="41.418" lon="2.114">
        <time>2020-11-02 16:27:37</time>
      </trkpt>
      <trkpt lat="41.4181" lon="2.11413">
        <time>2020-11-02 16:27:43</time>
      </trkpt>
      <trkpt lat="41.41813" lon="2.11421">
        <time>2020-11-02 16:27:46</time>
      </trkpt>
      <trkpt lat="41.41818" lon="2.11425">
        <time>2020-11-02 16:27:48</time>
      </trkpt>
      <trkpt lat="41.41822" lon="2.11434">
        <time>2020-11-02 16:27:51</time>
      </trkpt>
      <trkpt lat="41.41823" lon="2.11436">
        <time>2020-11-02 16:27:52</time>
      </trkpt>
      <trkpt lat="41.41828" lon="2.11453">
        <time>2020-11-02 16:27:58</time>
      </trkpt>
      <trkpt lat="41.4183" lon="2.11455">
        <time>2020-11-02 16:27:59</time>
      </trkpt>
      <trkpt lat="41.41837" lon="2.11466">
        <time>2020-11-02 16:28:03</time>
      </trkpt>
      <trkpt lat="41.41844" lon="2.1147">
        <time>2020-11-02 16:28:06</time>
      </trkpt>
      <trkpt lat="41.41849" lon="2.1147">
        <time>2020-11-02 16:28:08</time>
      </trkpt>
      <trkpt lat="41.41858" lon="2.11468">
        <time>2020-11-02 16:28:12</time>
      </trkpt>
      <trkpt lat="41.41865" lon="2.11466">
        <time>2020-11-02 16:28:15</time>
      </trkpt>
      <trkpt lat="41.41872" lon="2.11464">
        <time>2020-11-02 16:28:18</time>
      </trkpt>
      <trkpt lat="41.41884" lon="2.11467">
        <time>2020-11-02 16:28:23</time>
      </trkpt>
      <trkpt lat="41.41887" lon="2.1147">
        <time>2020-11-02 16:28:25</time>
      </trkpt>
      <trkpt lat="41.41887" lon="2.11481">
        <time>2020-11-02 16:28:29</time>
      </trkpt>
      <trkpt lat="41.41886" lon="2.11484">
        <time>2020-11-02 16:28:30</time>
      </trkpt>
      <trkpt lat="41.41881" lon="2.1149">
        <time>2020-11-02 16:28:35</time>
      </trkpt>
      <trkpt lat="41.41881" lon="2.11491">
        <time>2020-11-02 16:28:36</time>
      </trkpt>
      <trkpt lat="41.4188" lon="2.11491">
        <time>2020-11-02 16:28:37</time>
      </trkpt>
      <trkpt lat="41.41879" lon="2.11494">
        <time>2020-11-02 16:28:40</time>
      </trkpt>
      <trkpt lat="41.41879" lon="2.11497">
        <time>2020-11-02 16:28:42</time>
      </trkpt>
      <trkpt lat="41.41877" lon="2.11501">
        <time>2020-11-02 16:28:45</time>
      </trkpt>
      <trkpt lat="41.41873" lon="2.11508">
        <time>2020-11-02 16:28:50</time>
      </trkpt>
      <trkpt lat="41.41871" lon="2.11512">
        <time>2020-11-02 16:28:53</time>
      </trkpt>
      <trkpt lat="41.41869" lon="2.11513">
        <time>2020-11-02 16:28:55</time>
      </trkpt>
      <trkpt lat="41.41865" lon="2.11515">
        <time>2020-11-02 16:28:59</time>
      </trkpt>
      <trkpt lat="41.41863" lon="2.11516">
        <time>2020-11-02 16:29:00</time>
      </trkpt>
      <trkpt lat="41.41863" lon="2.11518">
        <time>2020-11-02 16:29:01</time>
      </trkpt>
      <trkpt lat="41.41863" lon="2.11523">
        <time>2020-11-02 16:29:04</time>
      </trkpt>
      <trkpt lat="41.41862" lon="2.11528">
        <time>2020-11-02 16:29:07</time>
      </trkpt>
      <trkpt lat="41.41861" lon="2.11529">
        <time>2020-11-02 16:29:08</time>
      </trkpt>
      <trkpt lat="41.41862" lon="2.11533">
        <time>2020-11-02 16:29:10</time>
      </trkpt>
      <trkpt lat="41.41863" lon="2.11541">
        <time>2020-11-02 16:29:14</time>
      </trkpt>
      <trkpt lat="41.41864" lon="2.11543">
        <time>2020-11-02 16:29:15</time>
      </trkpt>
      <trkpt lat="41.4187" lon="2.11556">
        <time>2020-11-02 16:29:21</time>
      </trkpt>
      <trkpt lat="41.4187" lon="2.11558">
        <time>2020-11-02 16:29:22</time>
      </trkpt>
      <trkpt lat="41.4187" lon="2.1156">
        <time>2020-11-02 16:29:23</time>
      </trkpt>
      <trkpt lat="41.41872" lon="2.11569">
        <time>2020-11-02 16:29:26</time>
      </trkpt>
      <trkpt lat="41.41873" lon="2.11573">
        <time>2020-11-02 16:29:29</time>
      </trkpt>
      <trkpt lat="41.41877" lon="2.11577">
        <time>2020-11-02 16:29:33</time>
      </trkpt>
      <trkpt lat="41.41881" lon="2.11579">
        <time>2020-11-02 16:29:35</time>
      </trkpt>
      <trkpt lat="41.41887" lon="2.1158">
        <time>2020-11-02 16:29:39</time>
      </trkpt>
      <trkpt lat="41.41894" lon="2.11582">
        <time>2020-11-02 16:29:43</time>
      </trkpt>
      <trkpt lat="41.41901" lon="2.11581">
        <time>2020-11-02 16:29:49</time>
      </trkpt>
      <trkpt lat="41.41902" lon="2.11581">
        <time>2020-11-02 16:29:50</time>
      </trkpt>
      <trkpt lat="41.41903" lon="2.11581">
        <time>2020-11-02 16:29:51</time>
      </trkpt>
      <trkpt lat="41.4191" lon="2.11581">
        <time>2020-11-02 16:29:56</time>
      </trkpt>
      <trkpt lat="41.41913" lon="2.11582">
        <time>2020-11-02 16:29:59</time>
      </trkpt>
      <trkpt lat="41.41919" lon="2.11583">
        <time>2020-11-02 16:30:03</time>
      </trkpt>
      <trkpt lat="41.41924" lon="2.11583">
        <time>2020-11-02 16:30:06</time>
      </trkpt>
      <trkpt lat="41.41928" lon="2.11586">
        <time>2020-11-02 16:30:09</time>
      </trkpt>
      <trkpt lat="41.41931" lon="2.11588">
        <time>2020-11-02 16:30:11</time>
      </trkpt>
      <trkpt lat="41.41933" lon="2.11591">
        <time>2020-11-02 16:30:13</time>
      </trkpt>
      <trkpt lat="41.41935" lon="2.11594">
        <time>2020-11-02 16:30:17</time>
      </trkpt>
      <trkpt lat="41.41936" lon="2.11595">
        <time>2020-11-02 16:30:18</time>
      </trkpt>
      <trkpt lat="41.41938" lon="2.11597">
        <time>2020-11-02 16:30:20</time>
      </trkpt>
      <trkpt lat="41.41942" lon="2.11599">
        <time>2020-11-02 16:30:24</time>
      </trkpt>
      <trkpt lat="41.41942" lon="2.116">
        <time>2020-11-02 16:30:25</time>
      </trkpt>
      <trkpt lat="41.41946" lon="2.11605">
        <time>2020-11-02 16:30:30</time>
      </trkpt>
      <trkpt lat="41.41949" lon="2.11609">
        <time>2020-11-02 16:30:34</time>
      </trkpt>
      <trkpt lat="41.41948" lon="2.1161">
        <time>2020-11-02 16:30:35</time>
      </trkpt>
      <trkpt lat="41.41948" lon="2.11612">
        <time>2020-11-02 16:30:38</time>
      </trkpt>
      <trkpt lat="41.41949" lon="2.11612">
        <time>2020-11-02 16:30:39</time>
      </trkpt>
      <trkpt lat="41.4195" lon="2.11615">
        <time>2020-11-02 16:30:41</time>
      </trkpt>
      <trkpt lat="41.4195" lon="2.11618">
        <time>2020-11-02 16:30:43</time>
      </trkpt>
      <trkpt lat="41.4195" lon="2.11619">
        <time>2020-11-02 16:30:44</time>
      </trkpt>
      <trkpt lat="41.41951" lon="2.11622">
        <time>2020-11-02 16:30:47</time>
      </trkpt>
      <trkpt lat="41.41951" lon="2.11623">
        <time>2020-11-02 16:30:48</time>
      </trkpt>
      <trkpt lat="41.41951" lon="2.11628">
        <time>2020-11-02 16:30:51</time>
      </trkpt>
      <trkpt lat="41.41952" lon="2.11636">
        <time>2020-11-02 16:30:55</time>
      </trkpt>
      <trkpt lat="41.41952" lon="2.11639">
        <time>2020-11-02 16:30:57</time>
      </trkpt>
      <trkpt lat="41.41952" lon="2.11641">
        <time>2020-11-02 16:30:58</time>
      </trkpt>
      <trkpt lat="41.41951" lon="2.11645">
        <time>2020-11-02 16:31:00</time>
      </trkpt>
      <trkpt lat="41.4195" lon="2.11648">
        <time>2020-11-02 16:31:02</time>
      </trkpt>
      <trkpt lat="41.4195" lon="2.1165">
        <time>2020-11-02 16:31:03</time>
      </trkpt>
      <trkpt lat="41.41946" lon="2.11662">
        <time>2020-11-02 16:31:10</time>
      </trkpt>
      <trkpt lat="41.41946" lon="2.11664">
        <time>2020-11-02 16:31:11</time>
      </trkpt>
      <trkpt lat="41.41945" lon="2.11668">
        <time>2020-11-02 16:31:14</time>
      </trkpt>
      <trkpt lat="41.41943" lon="2.11671">
        <time>2020-11-02 16:31:16</time>
      </trkpt>
      <trkpt lat="41.41943" lon="2.11673">
        <time>2020-11-02 16:31:17</time>
      </trkpt>
      <trkpt lat="41.41942" lon="2.11677">
        <time>2020-11-02 16:31:20</time>
      </trkpt>
      <trkpt lat="41.41942" lon="2.1168">
        <time>2020-11-02 16:31:22</time>
      </trkpt>
      <trkpt lat="41.4194" lon="2.11682">
        <time>2020-11-02 16:31:24</time>
      </trkpt>
      <trkpt lat="41.41939" lon="2.11683">
        <time>2020-11-02 16:31:25</time>
      </trkpt>
      <trkpt lat="41.41937" lon="2.11688">
        <time>2020-11-02 16:31:29</time>
      </trkpt>
      <trkpt lat="41.4194" lon="2.11691">
        <time>2020-11-02 16:31:32</time>
      </trkpt>
      <trkpt lat="41.41946" lon="2.11694">
        <time>2020-11-02 16:31:35</time>
      </trkpt>
      <trkpt lat="41.41949" lon="2.11695">
        <time>2020-11-02 16:31:36</time>
      </trkpt>
      <trkpt lat="41.41958" lon="2.11701">
        <time>2020-11-02 16:31:39</time>
      </trkpt>
      <trkpt lat="41.41963" lon="2.11706">
        <time>2020-11-02 16:31:41</time>
      </trkpt>
      <trkpt lat="41.41968" lon="2.11711">
        <time>2020-11-02 16:31:43</time>
      </trkpt>
      <trkpt lat="41.41974" lon="2.11718">
        <time>2020-11-02 16:31:46</time>
      </trkpt>
      <trkpt lat="41.41983" lon="2.11728">
        <time>2020-11-02 16:31:51</time>
      </trkpt>
      <trkpt lat="41.41996" lon="2.11748">
        <time>2020-11-02 16:31:58</time>
      </trkpt>
      <trkpt lat="41.41998" lon="2.11751">
        <time>2020-11-02 16:31:59</time>
      </trkpt>
      <trkpt lat="41.42007" lon="2.11764">
        <time>2020-11-02 16:32:03</time>
      </trkpt>
      <trkpt lat="41.42011" lon="2.11769">
        <time>2020-11-02 16:32:05</time>
      </trkpt>
      <trkpt lat="41.42015" lon="2.11769">
        <time>2020-11-02 16:32:07</time>
      </trkpt>
      <trkpt lat="41.42019" lon="2.11765">
        <time>2020-11-02 16:32:09</time>
      </trkpt>
      <trkpt lat="41.42021" lon="2.11762">
        <time>2020-11-02 16:32:10</time>
      </trkpt>
      <trkpt lat="41.42034" lon="2.1175">
        <time>2020-11-02 16:32:16</time>
      </trkpt>
      <trkpt lat="41.42048" lon="2.11738">
        <time>2020-11-02 16:32:22</time>
      </trkpt>
      <trkpt lat="41.42059" lon="2.11729">
        <time>2020-11-02 16:32:27</time>
      </trkpt>
      <trkpt lat="41.42061" lon="2.11727">
        <time>2020-11-02 16:32:28</time>
      </trkpt>
      <trkpt lat="41.42068" lon="2.11723">
        <time>2020-11-02 16:32:32</time>
      </trkpt>
      <trkpt lat="41.42074" lon="2.11722">
        <time>2020-11-02 16:32:35</time>
      </trkpt>
      <trkpt lat="41.42077" lon="2.11721">
        <time>2020-11-02 16:32:36</time>
      </trkpt>
      <trkpt lat="41.42088" lon="2.1172">
        <time>2020-11-02 16:32:41</time>
      </trkpt>
      <trkpt lat="41.42093" lon="2.1172">
        <time>2020-11-02 16:32:43</time>
      </trkpt>
      <trkpt lat="41.42102" lon="2.11723">
        <time>2020-11-02 16:32:47</time>
      </trkpt>
      <trkpt lat="41.42109" lon="2.11728">
        <time>2020-11-02 16:32:50</time>
      </trkpt>
      <trkpt lat="41.42117" lon="2.11733">
        <time>2020-11-02 16:32:53</time>
      </trkpt>
      <trkpt lat="41.42123" lon="2.11733">
        <time>2020-11-02 16:32:55</time>
      </trkpt>
      <trkpt lat="41.42136" lon="2.1172">
        <time>2020-11-02 16:33:01</time>
      </trkpt>
      <trkpt lat="41.42138" lon="2.11717">
        <time>2020-11-02 16:33:02</time>
      </trkpt>
      <trkpt lat="41.42148" lon="2.117">
        <time>2020-11-02 16:33:08</time>
      </trkpt>
      <trkpt lat="41.42152" lon="2.11687">
        <time>2020-11-02 16:33:14</time>
      </trkpt>
      <trkpt lat="41.42155" lon="2.11686">
        <time>2020-11-02 16:33:19</time>
      </trkpt>
      <trkpt lat="41.42154" lon="2.11685">
        <time>2020-11-02 16:33:23</time>
      </trkpt>
      <trkpt lat="41.42154" lon="2.11685">
        <time>2020-11-02 16:33:24</time>
      </trkpt>
      <trkpt lat="41.42154" lon="2.11684">
        <time>2020-11-02 16:33:25</time>
      </trkpt>
      <trkpt lat="41.42152" lon="2.11682">
        <time>2020-11-02 16:33:29</time>
      </trkpt>
      <trkpt lat="41.42156" lon="2.11683">
        <time>2020-11-02 16:33:33</time>
      </trkpt>
      <trkpt lat="41.42156" lon="2.11683">
        <time>2020-11-02 16:33:35</time>
      </trkpt>
      <trkpt lat="41.42156" lon="2.11686">
        <time>2020-11-02 16:33:37</time>
      </trkpt>
      <trkpt lat="41.42156" lon="2.11686">
        <time>2020-11-02 16:33:39</time>
      </trkpt>
      <trkpt lat="41.42157" lon="2.11687">
        <time>2020-11-02 16:33:40</time>
      </trkpt>
      <trkpt lat="41.42157" lon="2.11687">
        <time>2020-11-02 16:33:41</time>
      </trkpt>
      <trkpt lat="41.42158" lon="2.11689">
        <time>2020-11-02 16:33:43</time>
      </trkpt>
      <trkpt lat="41.42158" lon="2.11691">
        <time>2020-11-02 16:33:46</time>
      </trkpt>
      <trkpt lat="41.42159" lon="2.11692">
        <time>2020-11-02 16:33:47</time>
      </trkpt>
      <trkpt lat="41.42162" lon="2.11695">
        <time>2020-11-02 16:33:50</time>
      </trkpt>
      <trkpt lat="41.42162" lon="2.11696">
        <time>2020-11-02 16:33:51</time>
      </trkpt>
      <trkpt lat="41.42161" lon="2.11697">
        <time>2020-11-02 16:33:54</time>
      </trkpt>
      <trkpt lat="41.42161" lon="2.11698">
        <time>2020-11-02 16:33:55</time>
      </trkpt>
      <trkpt lat="41.42162" lon="2.11698">
        <time>2020-11-02 16:33:56</time>
      </trkpt>
      <trkpt lat="41.42165" lon="2.117">
        <time>2020-11-02 16:34:00</time>
      </trkpt>
      <trkpt lat="41.42165" lon="2.11701">
        <time>2020-11-02 16:34:01</time>
      </trkpt>
      <trkpt lat="41.42167" lon="2.11703">
        <time>2020-11-02 16:34:05</time>
      </trkpt>
      <trkpt lat="41.42167" lon="2.11703">
        <time>2020-11-02 16:34:06</time>
      </trkpt>
      <trkpt lat="41.42169" lon="2.11703">
        <time>2020-11-02 16:34:08</time>
      </trkpt>
      <trkpt lat="41.4217" lon="2.11703">
        <time>2020-11-02 16:34:09</time>
      </trkpt>
      <trkpt lat="41.42171" lon="2.11703">
        <time>2020-11-02 16:34:10</time>
      </trkpt>
      <trkpt lat="41.42171" lon="2.11702">
        <time>2020-11-02 16:34:12</time>
      </trkpt>
      <trkpt lat="41.4217" lon="2.11703">
        <time>2020-11-02 16:34:14</time>
      </trkpt>
      <trkpt lat="41.42169" lon="2.11704">
        <time>2020-11-02 16:34:15</time>
      </trkpt>
      <trkpt lat="41.42171" lon="2.11709">
        <time>2020-11-02 16:34:18</time>
      </trkpt>
      <trkpt lat="41.42172" lon="2.11711">
        <time>2020-11-02 16:34:19</time>
      </trkpt>
      <trkpt lat="41.42173" lon="2.11713">
        <time>2020-11-02 16:34:22</time>
      </trkpt>
      <trkpt lat="41.42172" lon="2.11713">
        <time>2020-11-02 16:34:24</time>
      </trkpt>
      <trkpt lat="41.42173" lon="2.11714">
        <time>2020-11-02 16:34:26</time>
      </trkpt>
      <trkpt lat="41.42174" lon="2.11715">
        <time>2020-11-02 16:34:27</time>
      </trkpt>
      <trkpt lat="41.42174" lon="2.11716">
        <time>2020-11-02 16:34:29</time>
      </trkpt>
      <trkpt lat="41.42174" lon="2.11716">
        <time>2020-11-02 16:34:31</time>
      </trkpt>
      <trkpt lat="41.42174" lon="2.11717">
        <time>2020-11-02 16:34:32</time>
      </trkpt>
      <trkpt lat="41.42175" lon="2.11718">
        <time>2020-11-02 16:34:35</time>
      </trkpt>
      <trkpt lat="41.42175" lon="2.11719">
        <time>2020-11-02 16:34:36</time>
      </trkpt>
      <trkpt lat="41.42175" lon="2.11719">
        <time>2020-11-02 16:34:37</time>
      </trkpt>
      <trkpt lat="41.42176" lon="2.11721">
        <time>2020-11-02 16:34:40</time>
      </trkpt>
      <trkpt lat="41.42177" lon="2.11723">
        <time>2020-11-02 16:34:41</time>
      </trkpt>
      <trkpt lat="41.42179" lon="2.11726">
        <time>2020-11-02 16:34:43</time>
      </trkpt>
      <trkpt lat="41.42181" lon="2.11727">
        <time>2020-11-02 16:34:46</time>
      </trkpt>
      <trkpt lat="41.42182" lon="2.1173">
        <time>2020-11-02 16:34:50</time>
      </trkpt>
      <trkpt lat="41.42182" lon="2.11731">
        <time>2020-11-02 16:34:51</time>
      </trkpt>
      <trkpt lat="41.42182" lon="2.11732">
        <time>2020-11-02 16:34:52</time>
      </trkpt>
      <trkpt lat="41.42182" lon="2.11734">
        <time>2020-11-02 16:34:54</time>
      </trkpt>
      <trkpt lat="41.42182" lon="2.11735">
        <time>2020-11-02 16:34:56</time>
      </trkpt>
      <trkpt lat="41.42183" lon="2.11737">
        <time>2020-11-02 16:34:57</time>
      </trkpt>
      <trkpt lat="41.42184" lon="2.11742">
        <time>2020-11-02 16:35:01</time>
      </trkpt>
      <trkpt lat="41.42183" lon="2.11743">
        <time>2020-11-02 16:35:03</time>
      </trkpt>
      <trkpt lat="41.42182" lon="2.11744">
        <time>2020-11-02 16:35:06</time>
      </trkpt>
      <trkpt lat="41.42182" lon="2.11746">
        <time>2020-11-02 16:35:08</time>
      </trkpt>
      <trkpt lat="41.42182" lon="2.11747">
        <time>2020-11-02 16:35:09</time>
      </trkpt>
      <trkpt lat="41.42182" lon="2.11747">
        <time>2020-11-02 16:35:10</time>
      </trkpt>
      <trkpt lat="41.42182" lon="2.11747">
        <time>2020-11-02 16:35:11</time>
      </trkpt>
      <trkpt lat="41.42182" lon="2.11749">
        <time>2020-11-02 16:35:13</time>
      </trkpt>
      <trkpt lat="41.42183" lon="2.11752">
        <time>2020-11-02 16:35:15</time>
      </trkpt>
      <trkpt lat="41.42183" lon="2.11753">
        <time>2020-11-02 16:35:16</time>
      </trkpt>
      <trkpt lat="41.42182" lon="2.11756">
        <time>2020-11-02 16:35:18</time>
      </trkpt>
      <trkpt lat="41.42182" lon="2.11756">
        <time>2020-11-02 16:35:19</time>
      </trkpt>
      <trkpt lat="41.42181" lon="2.11756">
        <time>2020-11-02 16:35:20</time>
      </trkpt>
      <trkpt lat="41.4218" lon="2.11756">
        <time>2020-11-02 16:35:21</time>
      </trkpt>
      <trkpt lat="41.42178" lon="2.11759">
        <time>2020-11-02 16:35:24</time>
      </trkpt>
      <trkpt lat="41.42177" lon="2.11762">
        <time>2020-11-02 16:35:26</time>
      </trkpt>
      <trkpt lat="41.42177" lon="2.11766">
        <time>2020-11-02 16:35:29</time>
      </trkpt>
      <trkpt lat="41.42177" lon="2.11769">
        <time>2020-11-02 16:35:31</time>
      </trkpt>
      <trkpt lat="41.42177" lon="2.11773">
        <time>2020-11-02 16:35:34</time>
      </trkpt>
      <trkpt lat="41.42177" lon="2.11776">
        <time>2020-11-02 16:35:37</time>
      </trkpt>
      <trkpt lat="41.42177" lon="2.1178">
        <time>2020-11-02 16:35:39</time>
      </trkpt>
      <trkpt lat="41.42176" lon="2.1178">
        <time>2020-11-02 16:35:40</time>
      </trkpt>
      <trkpt lat="41.42174" lon="2.11781">
        <time>2020-11-02 16:35:42</time>
      </trkpt>
      <trkpt lat="41.42172" lon="2.11784">
        <time>2020-11-02 16:35:45</time>
      </trkpt>
      <trkpt lat="41.42169" lon="2.11789">
        <time>2020-11-02 16:35:49</time>
      </trkpt>
      <trkpt lat="41.42165" lon="2.11795">
        <time>2020-11-02 16:35:56</time>
      </trkpt>
      <trkpt lat="41.42165" lon="2.11798">
        <time>2020-11-02 16:35:59</time>
      </trkpt>
      <trkpt lat="41.42165" lon="2.118">
        <time>2020-11-02 16:36:00</time>
      </trkpt>
      <trkpt lat="41.42165" lon="2.11801">
        <time>2020-11-02 16:36:01</time>
      </trkpt>
      <trkpt lat="41.42164" lon="2.11802">
        <time>2020-11-02 16:36:02</time>
      </trkpt>
      <trkpt lat="41.42162" lon="2.11803">
        <time>2020-11-02 16:36:04</time>
      </trkpt>
      <trkpt lat="41.42163" lon="2.11806">
        <time>2020-11-02 16:36:06</time>
      </trkpt>
      <trkpt lat="41.42163" lon="2.11808">
        <time>2020-11-02 16:36:07</time>
      </trkpt>
      <trkpt lat="41.42163" lon="2.11814">
        <time>2020-11-02 16:36:10</time>
      </trkpt>
      <trkpt lat="41.42162" lon="2.11817">
        <time>2020-11-02 16:36:12</time>
      </trkpt>
      <trkpt lat="41.4216" lon="2.11819">
        <time>2020-11-02 16:36:14</time>
      </trkpt>
      <trkpt lat="41.42159" lon="2.11821">
        <time>2020-11-02 16:36:15</time>
      </trkpt>
      <trkpt lat="41.42158" lon="2.11823">
        <time>2020-11-02 16:36:17</time>
      </trkpt>
      <trkpt lat="41.42158" lon="2.11827">
        <time>2020-11-02 16:36:20</time>
      </trkpt>
      <trkpt lat="41.42158" lon="2.11829">
        <time>2020-11-02 16:36:22</time>
      </trkpt>
      <trkpt lat="41.42156" lon="2.11838">
        <time>2020-11-02 16:36:27</time>
      </trkpt>
      <trkpt lat="41.42156" lon="2.11838">
        <time>2020-11-02 16:36:28</time>
      </trkpt>
      <trkpt lat="41.42156" lon="2.1184">
        <time>2020-11-02 16:36:30</time>
      </trkpt>
      <trkpt lat="41.42155" lon="2.11843">
        <time>2020-11-02 16:36:32</time>
      </trkpt>
      <trkpt lat="41.42154" lon="2.11846">
        <time>2020-11-02 16:36:35</time>
      </trkpt>
      <trkpt lat="41.42154" lon="2.11846">
        <time>2020-11-02 16:36:36</time>
      </trkpt>
      <trkpt lat="41.42156" lon="2.1185">
        <time>2020-11-02 16:36:38</time>
      </trkpt>
      <trkpt lat="41.42155" lon="2.11853">
        <time>2020-11-02 16:36:40</time>
      </trkpt>
      <trkpt lat="41.42155" lon="2.11854">
        <time>2020-11-02 16:36:41</time>
      </trkpt>
      <trkpt lat="41.42154" lon="2.11855">
        <time>2020-11-02 16:36:42</time>
      </trkpt>
      <trkpt lat="41.42153" lon="2.11857">
        <time>2020-11-02 16:36:43</time>
      </trkpt>
      <trkpt lat="41.42152" lon="2.1186">
        <time>2020-11-02 16:36:45</time>
      </trkpt>
      <trkpt lat="41.42151" lon="2.11864">
        <time>2020-11-02 16:36:48</time>
      </trkpt>
      <trkpt lat="41.42151" lon="2.11868">
        <time>2020-11-02 16:36:53</time>
      </trkpt>
      <trkpt lat="41.42151" lon="2.11868">
        <time>2020-11-02 16:36:54</time>
      </trkpt>
      <trkpt lat="41.42151" lon="2.11868">
        <time>2020-11-02 16:36:56</time>
      </trkpt>
      <trkpt lat="41.42151" lon="2.1187">
        <time>2020-11-02 16:37:00</time>
      </trkpt>
      <trkpt lat="41.4215" lon="2.11872">
        <time>2020-11-02 16:37:02</time>
      </trkpt>
      <trkpt lat="41.4215" lon="2.11874">
        <time>2020-11-02 16:37:04</time>
      </trkpt>
      <trkpt lat="41.42149" lon="2.11877">
        <time>2020-11-02 16:37:06</time>
      </trkpt>
      <trkpt lat="41.42147" lon="2.1188">
        <time>2020-11-02 16:37:09</time>
      </trkpt>
      <trkpt lat="41.42139" lon="2.1189">
        <time>2020-11-02 16:37:16</time>
      </trkpt>
      <trkpt lat="41.42135" lon="2.11899">
        <time>2020-11-02 16:37:23</time>
      </trkpt>
      <trkpt lat="41.42132" lon="2.1191">
        <time>2020-11-02 16:37:31</time>
      </trkpt>
      <trkpt lat="41.42132" lon="2.11913">
        <time>2020-11-02 16:37:33</time>
      </trkpt>
      <trkpt lat="41.4213" lon="2.11916">
        <time>2020-11-02 16:37:37</time>
      </trkpt>
      <trkpt lat="41.42129" lon="2.11916">
        <time>2020-11-02 16:37:38</time>
      </trkpt>
      <trkpt lat="41.42126" lon="2.11918">
        <time>2020-11-02 16:37:42</time>
      </trkpt>
      <trkpt lat="41.42125" lon="2.11922">
        <time>2020-11-02 16:37:44</time>
      </trkpt>
      <trkpt lat="41.42125" lon="2.11925">
        <time>2020-11-02 16:37:46</time>
      </trkpt>
      <trkpt lat="41.42125" lon="2.11927">
        <time>2020-11-02 16:37:47</time>
      </trkpt>
      <trkpt lat="41.42124" lon="2.11929">
        <time>2020-11-02 16:37:49</time>
      </trkpt>
      <trkpt lat="41.42123" lon="2.11932">
        <time>2020-11-02 16:37:51</time>
      </trkpt>
      <trkpt lat="41.42122" lon="2.11933">
        <time>2020-11-02 16:37:52</time>
      </trkpt>
      <trkpt lat="41.4212" lon="2.11935">
        <time>2020-11-02 16:37:54</time>
      </trkpt>
      <trkpt lat="41.42117" lon="2.11939">
        <time>2020-11-02 16:37:59</time>
      </trkpt>
      <trkpt lat="41.42115" lon="2.11941">
        <time>2020-11-02 16:38:02</time>
      </trkpt>
      <trkpt lat="41.42113" lon="2.11945">
        <time>2020-11-02 16:38:06</time>
      </trkpt>
      <trkpt lat="41.42111" lon="2.11948">
        <time>2020-11-02 16:38:10</time>
      </trkpt>
      <trkpt lat="41.42111" lon="2.11948">
        <time>2020-11-02 16:38:11</time>
      </trkpt>
      <trkpt lat="41.4211" lon="2.1195">
        <time>2020-11-02 16:38:15</time>
      </trkpt>
    </trkseg>
  </trk>
</gpx>
